<?xml version="1.0" encoding="UTF-8" standalone="no" ?>
<gpx xmlns="http://www.topografix.com/GPX/1/1" xmlns:xsi="http://www.w3.org/2001/XMLSchema-instance" xsi:schemaLocation="http://www.topografix.com/GPX/1/1 http://www.topografix.com/GPX/1/1/gpx.xsd" version="1.1" creator="VisuGPX - https://www.visugpx.com">
  <metadata>
    <name>Nord Toulousain 18/06/2022</name>
  </metadata>
  <trk>
    <name><![CDATA[Nord Toulousain 18/06/2022]]></name>
    <extensions>
      <line xmlns="http://www.topografix.com/GPX/gpx_style/0/2">
        <color>0000FF</color>
        <width>3</width>
          <extensions>
            <sens>1</sens>
          </extensions>
      </line>
    </extensions>
    <trkseg>
      <trkpt lat="43.65604" lon="1.44644">
        <ele>136</ele>
        <time>2022-06-18T13:50:46Z</time>
      </trkpt>
      <trkpt lat="43.65608" lon="1.4465">
        <ele>136</ele>
        <time>2022-06-18T13:50:47Z</time>
      </trkpt>
      <trkpt lat="43.65608" lon="1.44662">
        <ele>136</ele>
        <time>2022-06-18T13:50:49Z</time>
      </trkpt>
      <trkpt lat="43.65546" lon="1.44786">
        <ele>136</ele>
        <time>2022-06-18T13:51:15Z</time>
      </trkpt>
      <trkpt lat="43.65519" lon="1.44825">
        <ele>136</ele>
        <time>2022-06-18T13:51:24Z</time>
      </trkpt>
      <trkpt lat="43.65504" lon="1.44869">
        <ele>136</ele>
        <time>2022-06-18T13:51:32Z</time>
      </trkpt>
      <trkpt lat="43.65483" lon="1.4491">
        <ele>137</ele>
        <time>2022-06-18T13:51:40Z</time>
      </trkpt>
      <trkpt lat="43.65477" lon="1.44935">
        <ele>138</ele>
        <time>2022-06-18T13:51:45Z</time>
      </trkpt>
      <trkpt lat="43.65503" lon="1.4498">
        <ele>136</ele>
        <time>2022-06-18T13:51:55Z</time>
      </trkpt>
      <trkpt lat="43.65597" lon="1.45113">
        <ele>135</ele>
        <time>2022-06-18T13:52:26Z</time>
      </trkpt>
      <trkpt lat="43.65603" lon="1.45132">
        <ele>135</ele>
        <time>2022-06-18T13:52:29Z</time>
      </trkpt>
      <trkpt lat="43.65601" lon="1.45151">
        <ele>135</ele>
        <time>2022-06-18T13:52:33Z</time>
      </trkpt>
      <trkpt lat="43.65578" lon="1.45182">
        <ele>135</ele>
        <time>2022-06-18T13:52:40Z</time>
      </trkpt>
      <trkpt lat="43.65461" lon="1.45309">
        <ele>136</ele>
        <time>2022-06-18T13:53:15Z</time>
      </trkpt>
      <trkpt lat="43.65441" lon="1.45346">
        <ele>136</ele>
        <time>2022-06-18T13:53:23Z</time>
      </trkpt>
      <trkpt lat="43.65441" lon="1.45362">
        <ele>136</ele>
        <time>2022-06-18T13:53:25Z</time>
      </trkpt>
      <trkpt lat="43.65457" lon="1.45372">
        <ele>136</ele>
        <time>2022-06-18T13:53:30Z</time>
      </trkpt>
      <trkpt lat="43.6562" lon="1.45429">
        <ele>135</ele>
        <time>2022-06-18T13:54:09Z</time>
      </trkpt>
      <trkpt lat="43.65727" lon="1.45475">
        <ele>136</ele>
        <time>2022-06-18T13:54:35Z</time>
      </trkpt>
      <trkpt lat="43.65772" lon="1.45483">
        <ele>137</ele>
        <time>2022-06-18T13:54:46Z</time>
      </trkpt>
      <trkpt lat="43.65799" lon="1.45494">
        <ele>137</ele>
        <time>2022-06-18T13:54:52Z</time>
      </trkpt>
      <trkpt lat="43.65818" lon="1.45492">
        <ele>137</ele>
        <time>2022-06-18T13:54:57Z</time>
      </trkpt>
      <trkpt lat="43.65861" lon="1.45478">
        <ele>136</ele>
        <time>2022-06-18T13:55:07Z</time>
      </trkpt>
      <trkpt lat="43.65895" lon="1.45474">
        <ele>136</ele>
        <time>2022-06-18T13:55:15Z</time>
      </trkpt>
      <trkpt lat="43.65926" lon="1.45494">
        <ele>135</ele>
        <time>2022-06-18T13:55:23Z</time>
      </trkpt>
      <trkpt lat="43.65952" lon="1.45524">
        <ele>135</ele>
        <time>2022-06-18T13:55:31Z</time>
      </trkpt>
      <trkpt lat="43.65981" lon="1.45501">
        <ele>137</ele>
        <time>2022-06-18T13:55:39Z</time>
      </trkpt>
      <trkpt lat="43.65991" lon="1.45497">
        <ele>137</ele>
        <time>2022-06-18T13:55:41Z</time>
      </trkpt>
      <trkpt lat="43.66009" lon="1.45501">
        <ele>137</ele>
        <time>2022-06-18T13:55:45Z</time>
      </trkpt>
      <trkpt lat="43.66053" lon="1.45532">
        <ele>136</ele>
        <time>2022-06-18T13:55:57Z</time>
      </trkpt>
      <trkpt lat="43.66109" lon="1.45562">
        <ele>134</ele>
        <time>2022-06-18T13:56:11Z</time>
      </trkpt>
      <trkpt lat="43.66128" lon="1.45554">
        <ele>134</ele>
        <time>2022-06-18T13:56:15Z</time>
      </trkpt>
      <trkpt lat="43.66132" lon="1.45556">
        <ele>134</ele>
        <time>2022-06-18T13:56:16Z</time>
      </trkpt>
      <trkpt lat="43.66166" lon="1.45588">
        <ele>132</ele>
        <time>2022-06-18T13:56:26Z</time>
      </trkpt>
      <trkpt lat="43.66199" lon="1.45628">
        <ele>131</ele>
        <time>2022-06-18T13:56:36Z</time>
      </trkpt>
      <trkpt lat="43.6621" lon="1.45625">
        <ele>130</ele>
        <time>2022-06-18T13:56:39Z</time>
      </trkpt>
      <trkpt lat="43.66218" lon="1.45605">
        <ele>130</ele>
        <time>2022-06-18T13:56:43Z</time>
      </trkpt>
      <trkpt lat="43.66272" lon="1.45406">
        <ele>131</ele>
        <time>2022-06-18T13:57:19Z</time>
      </trkpt>
      <trkpt lat="43.6629" lon="1.45353">
        <ele>131</ele>
        <time>2022-06-18T13:57:29Z</time>
      </trkpt>
      <trkpt lat="43.66354" lon="1.45222">
        <ele>132</ele>
        <time>2022-06-18T13:57:55Z</time>
      </trkpt>
      <trkpt lat="43.66365" lon="1.45177">
        <ele>133</ele>
        <time>2022-06-18T13:58:03Z</time>
      </trkpt>
      <trkpt lat="43.66362" lon="1.4516">
        <ele>134</ele>
        <time>2022-06-18T13:58:06Z</time>
      </trkpt>
      <trkpt lat="43.66389" lon="1.45098">
        <ele>134</ele>
        <time>2022-06-18T13:58:19Z</time>
      </trkpt>
      <trkpt lat="43.66406" lon="1.45042">
        <ele>134</ele>
        <time>2022-06-18T13:58:29Z</time>
      </trkpt>
      <trkpt lat="43.66418" lon="1.44977">
        <ele>134</ele>
        <time>2022-06-18T13:58:40Z</time>
      </trkpt>
      <trkpt lat="43.66434" lon="1.44922">
        <ele>133</ele>
        <time>2022-06-18T13:58:50Z</time>
      </trkpt>
      <trkpt lat="43.66447" lon="1.44893">
        <ele>132</ele>
        <time>2022-06-18T13:58:56Z</time>
      </trkpt>
      <trkpt lat="43.6647" lon="1.44813">
        <ele>132</ele>
        <time>2022-06-18T13:59:10Z</time>
      </trkpt>
      <trkpt lat="43.66494" lon="1.44761">
        <ele>131</ele>
        <time>2022-06-18T13:59:21Z</time>
      </trkpt>
      <trkpt lat="43.66508" lon="1.44718">
        <ele>131</ele>
        <time>2022-06-18T13:59:29Z</time>
      </trkpt>
      <trkpt lat="43.66518" lon="1.44709">
        <ele>131</ele>
        <time>2022-06-18T13:59:32Z</time>
      </trkpt>
      <trkpt lat="43.66559" lon="1.44738">
        <ele>131</ele>
        <time>2022-06-18T13:59:42Z</time>
      </trkpt>
      <trkpt lat="43.66626" lon="1.44841">
        <ele>130</ele>
        <time>2022-06-18T14:00:06Z</time>
      </trkpt>
      <trkpt lat="43.6664" lon="1.44853">
        <ele>130</ele>
        <time>2022-06-18T14:00:10Z</time>
      </trkpt>
      <trkpt lat="43.66661" lon="1.44859">
        <ele>130</ele>
        <time>2022-06-18T14:00:15Z</time>
      </trkpt>
      <trkpt lat="43.66677" lon="1.44858">
        <ele>130</ele>
        <time>2022-06-18T14:00:18Z</time>
      </trkpt>
      <trkpt lat="43.66699" lon="1.44848">
        <ele>131</ele>
        <time>2022-06-18T14:00:24Z</time>
      </trkpt>
      <trkpt lat="43.6673" lon="1.44822">
        <ele>132</ele>
        <time>2022-06-18T14:00:32Z</time>
      </trkpt>
      <trkpt lat="43.66741" lon="1.4482">
        <ele>132</ele>
        <time>2022-06-18T14:00:35Z</time>
      </trkpt>
      <trkpt lat="43.66755" lon="1.44832">
        <ele>132</ele>
        <time>2022-06-18T14:00:39Z</time>
      </trkpt>
      <trkpt lat="43.66762" lon="1.44869">
        <ele>131</ele>
        <time>2022-06-18T14:00:45Z</time>
      </trkpt>
      <trkpt lat="43.66789" lon="1.44898">
        <ele>131</ele>
        <time>2022-06-18T14:00:53Z</time>
      </trkpt>
      <trkpt lat="43.66826" lon="1.44917">
        <ele>131</ele>
        <time>2022-06-18T14:01:02Z</time>
      </trkpt>
      <trkpt lat="43.66921" lon="1.44946">
        <ele>131</ele>
        <time>2022-06-18T14:01:25Z</time>
      </trkpt>
      <trkpt lat="43.66933" lon="1.44962">
        <ele>131</ele>
        <time>2022-06-18T14:01:29Z</time>
      </trkpt>
      <trkpt lat="43.66961" lon="1.45037">
        <ele>131</ele>
        <time>2022-06-18T14:01:43Z</time>
      </trkpt>
      <trkpt lat="43.67002" lon="1.45117">
        <ele>131</ele>
        <time>2022-06-18T14:02:00Z</time>
      </trkpt>
      <trkpt lat="43.67014" lon="1.45151">
        <ele>131</ele>
        <time>2022-06-18T14:02:06Z</time>
      </trkpt>
      <trkpt lat="43.67022" lon="1.45159">
        <ele>132</ele>
        <time>2022-06-18T14:02:08Z</time>
      </trkpt>
      <trkpt lat="43.67037" lon="1.45155">
        <ele>132</ele>
        <time>2022-06-18T14:02:12Z</time>
      </trkpt>
      <trkpt lat="43.67061" lon="1.4514">
        <ele>132</ele>
        <time>2022-06-18T14:02:18Z</time>
      </trkpt>
      <trkpt lat="43.67071" lon="1.45143">
        <ele>133</ele>
        <time>2022-06-18T14:02:21Z</time>
      </trkpt>
      <trkpt lat="43.67083" lon="1.45156">
        <ele>133</ele>
        <time>2022-06-18T14:02:24Z</time>
      </trkpt>
      <trkpt lat="43.67091" lon="1.45159">
        <ele>133</ele>
        <time>2022-06-18T14:02:26Z</time>
      </trkpt>
      <trkpt lat="43.6714" lon="1.45131">
        <ele>134</ele>
        <time>2022-06-18T14:02:38Z</time>
      </trkpt>
      <trkpt lat="43.67158" lon="1.45143">
        <ele>135</ele>
        <time>2022-06-18T14:02:43Z</time>
      </trkpt>
      <trkpt lat="43.67168" lon="1.45143">
        <ele>135</ele>
        <time>2022-06-18T14:02:45Z</time>
      </trkpt>
      <trkpt lat="43.67207" lon="1.4512">
        <ele>134</ele>
        <time>2022-06-18T14:02:55Z</time>
      </trkpt>
      <trkpt lat="43.67216" lon="1.45131">
        <ele>134</ele>
        <time>2022-06-18T14:02:58Z</time>
      </trkpt>
      <trkpt lat="43.67239" lon="1.45224">
        <ele>134</ele>
        <time>2022-06-18T14:03:15Z</time>
      </trkpt>
      <trkpt lat="43.67257" lon="1.45263">
        <ele>134</ele>
        <time>2022-06-18T14:03:23Z</time>
      </trkpt>
      <trkpt lat="43.67272" lon="1.4531">
        <ele>135</ele>
        <time>2022-06-18T14:03:31Z</time>
      </trkpt>
      <trkpt lat="43.67281" lon="1.45312">
        <ele>135</ele>
        <time>2022-06-18T14:03:33Z</time>
      </trkpt>
      <trkpt lat="43.67317" lon="1.45294">
        <ele>135</ele>
        <time>2022-06-18T14:03:42Z</time>
      </trkpt>
      <trkpt lat="43.67363" lon="1.45309">
        <ele>135</ele>
        <time>2022-06-18T14:03:53Z</time>
      </trkpt>
      <trkpt lat="43.67375" lon="1.45309">
        <ele>135</ele>
        <time>2022-06-18T14:03:56Z</time>
      </trkpt>
      <trkpt lat="43.67419" lon="1.45285">
        <ele>134</ele>
        <time>2022-06-18T14:04:07Z</time>
      </trkpt>
      <trkpt lat="43.6743" lon="1.45284">
        <ele>134</ele>
        <time>2022-06-18T14:04:10Z</time>
      </trkpt>
      <trkpt lat="43.67439" lon="1.45293">
        <ele>134</ele>
        <time>2022-06-18T14:04:12Z</time>
      </trkpt>
      <trkpt lat="43.67472" lon="1.45366">
        <ele>135</ele>
        <time>2022-06-18T14:04:27Z</time>
      </trkpt>
      <trkpt lat="43.67493" lon="1.45385">
        <ele>134</ele>
        <time>2022-06-18T14:04:33Z</time>
      </trkpt>
      <trkpt lat="43.67507" lon="1.45381">
        <ele>134</ele>
        <time>2022-06-18T14:04:36Z</time>
      </trkpt>
      <trkpt lat="43.67542" lon="1.45344">
        <ele>135</ele>
        <time>2022-06-18T14:04:46Z</time>
      </trkpt>
      <trkpt lat="43.6756" lon="1.45342">
        <ele>135</ele>
        <time>2022-06-18T14:04:51Z</time>
      </trkpt>
      <trkpt lat="43.67605" lon="1.45317">
        <ele>135</ele>
        <time>2022-06-18T14:05:02Z</time>
      </trkpt>
      <trkpt lat="43.6765" lon="1.45308">
        <ele>135</ele>
        <time>2022-06-18T14:05:13Z</time>
      </trkpt>
      <trkpt lat="43.67715" lon="1.4533">
        <ele>134</ele>
        <time>2022-06-18T14:05:28Z</time>
      </trkpt>
      <trkpt lat="43.67844" lon="1.4543">
        <ele>137</ele>
        <time>2022-06-18T14:06:03Z</time>
      </trkpt>
      <trkpt lat="43.67859" lon="1.45433">
        <ele>137</ele>
        <time>2022-06-18T14:06:06Z</time>
      </trkpt>
      <trkpt lat="43.67891" lon="1.4542">
        <ele>136</ele>
        <time>2022-06-18T14:06:14Z</time>
      </trkpt>
      <trkpt lat="43.67936" lon="1.45384">
        <ele>136</ele>
        <time>2022-06-18T14:06:26Z</time>
      </trkpt>
      <trkpt lat="43.67973" lon="1.45364">
        <ele>137</ele>
        <time>2022-06-18T14:06:35Z</time>
      </trkpt>
      <trkpt lat="43.68039" lon="1.45314">
        <ele>137</ele>
        <time>2022-06-18T14:06:53Z</time>
      </trkpt>
      <trkpt lat="43.68156" lon="1.45207">
        <ele>136</ele>
        <time>2022-06-18T14:07:26Z</time>
      </trkpt>
      <trkpt lat="43.68165" lon="1.45206">
        <ele>136</ele>
        <time>2022-06-18T14:07:28Z</time>
      </trkpt>
      <trkpt lat="43.68175" lon="1.45231">
        <ele>136</ele>
        <time>2022-06-18T14:07:33Z</time>
      </trkpt>
      <trkpt lat="43.68222" lon="1.45423">
        <ele>137</ele>
        <time>2022-06-18T14:08:07Z</time>
      </trkpt>
      <trkpt lat="43.68255" lon="1.45529">
        <ele>136</ele>
        <time>2022-06-18T14:08:26Z</time>
      </trkpt>
      <trkpt lat="43.68279" lon="1.4565">
        <ele>138</ele>
        <time>2022-06-18T14:08:48Z</time>
      </trkpt>
      <trkpt lat="43.68281" lon="1.45712">
        <ele>139</ele>
        <time>2022-06-18T14:08:58Z</time>
      </trkpt>
      <trkpt lat="43.68264" lon="1.45978">
        <ele>147</ele>
        <time>2022-06-18T14:09:43Z</time>
      </trkpt>
      <trkpt lat="43.68281" lon="1.46064">
        <ele>150</ele>
        <time>2022-06-18T14:09:58Z</time>
      </trkpt>
      <trkpt lat="43.68285" lon="1.46125">
        <ele>152</ele>
        <time>2022-06-18T14:10:09Z</time>
      </trkpt>
      <trkpt lat="43.68358" lon="1.46244">
        <ele>151</ele>
        <time>2022-06-18T14:10:35Z</time>
      </trkpt>
      <trkpt lat="43.68367" lon="1.46251">
        <ele>151</ele>
        <time>2022-06-18T14:10:37Z</time>
      </trkpt>
      <trkpt lat="43.68375" lon="1.46243">
        <ele>150</ele>
        <time>2022-06-18T14:10:40Z</time>
      </trkpt>
      <trkpt lat="43.68389" lon="1.46239">
        <ele>150</ele>
        <time>2022-06-18T14:10:43Z</time>
      </trkpt>
      <trkpt lat="43.68397" lon="1.46245">
        <ele>150</ele>
        <time>2022-06-18T14:10:45Z</time>
      </trkpt>
      <trkpt lat="43.68436" lon="1.46252">
        <ele>150</ele>
        <time>2022-06-18T14:10:54Z</time>
      </trkpt>
      <trkpt lat="43.68459" lon="1.46236">
        <ele>150</ele>
        <time>2022-06-18T14:11:00Z</time>
      </trkpt>
      <trkpt lat="43.6849" lon="1.46272">
        <ele>152</ele>
        <time>2022-06-18T14:11:10Z</time>
      </trkpt>
      <trkpt lat="43.6851" lon="1.46276">
        <ele>152</ele>
        <time>2022-06-18T14:11:15Z</time>
      </trkpt>
      <trkpt lat="43.68544" lon="1.46267">
        <ele>153</ele>
        <time>2022-06-18T14:11:23Z</time>
      </trkpt>
      <trkpt lat="43.68562" lon="1.46269">
        <ele>153</ele>
        <time>2022-06-18T14:11:27Z</time>
      </trkpt>
      <trkpt lat="43.6858" lon="1.46265">
        <ele>154</ele>
        <time>2022-06-18T14:11:31Z</time>
      </trkpt>
      <trkpt lat="43.68604" lon="1.46289">
        <ele>154</ele>
        <time>2022-06-18T14:11:38Z</time>
      </trkpt>
      <trkpt lat="43.68677" lon="1.46335">
        <ele>155</ele>
        <time>2022-06-18T14:11:57Z</time>
      </trkpt>
      <trkpt lat="43.68694" lon="1.46337">
        <ele>155</ele>
        <time>2022-06-18T14:12:01Z</time>
      </trkpt>
      <trkpt lat="43.68711" lon="1.46331">
        <ele>155</ele>
        <time>2022-06-18T14:12:05Z</time>
      </trkpt>
      <trkpt lat="43.68726" lon="1.46334">
        <ele>155</ele>
        <time>2022-06-18T14:12:08Z</time>
      </trkpt>
      <trkpt lat="43.68801" lon="1.46363">
        <ele>159</ele>
        <time>2022-06-18T14:12:27Z</time>
      </trkpt>
      <trkpt lat="43.68827" lon="1.46365">
        <ele>161</ele>
        <time>2022-06-18T14:12:33Z</time>
      </trkpt>
      <trkpt lat="43.68849" lon="1.4638">
        <ele>162</ele>
        <time>2022-06-18T14:12:38Z</time>
      </trkpt>
      <trkpt lat="43.6887" lon="1.46388">
        <ele>163</ele>
        <time>2022-06-18T14:12:43Z</time>
      </trkpt>
      <trkpt lat="43.6888" lon="1.4641">
        <ele>165</ele>
        <time>2022-06-18T14:12:48Z</time>
      </trkpt>
      <trkpt lat="43.68899" lon="1.46411">
        <ele>165</ele>
        <time>2022-06-18T14:12:52Z</time>
      </trkpt>
      <trkpt lat="43.68919" lon="1.46424">
        <ele>166</ele>
        <time>2022-06-18T14:12:57Z</time>
      </trkpt>
      <trkpt lat="43.68941" lon="1.46466">
        <ele>170</ele>
        <time>2022-06-18T14:13:06Z</time>
      </trkpt>
      <trkpt lat="43.68969" lon="1.46467">
        <ele>170</ele>
        <time>2022-06-18T14:13:13Z</time>
      </trkpt>
      <trkpt lat="43.69017" lon="1.46499">
        <ele>171</ele>
        <time>2022-06-18T14:13:25Z</time>
      </trkpt>
      <trkpt lat="43.69015" lon="1.46514">
        <ele>172</ele>
        <time>2022-06-18T14:13:28Z</time>
      </trkpt>
      <trkpt lat="43.68989" lon="1.46569">
        <ele>174</ele>
        <time>2022-06-18T14:13:39Z</time>
      </trkpt>
      <trkpt lat="43.68954" lon="1.46583">
        <ele>176</ele>
        <time>2022-06-18T14:13:47Z</time>
      </trkpt>
      <trkpt lat="43.68955" lon="1.46621">
        <ele>176</ele>
        <time>2022-06-18T14:13:54Z</time>
      </trkpt>
      <trkpt lat="43.68966" lon="1.46635">
        <ele>175</ele>
        <time>2022-06-18T14:13:57Z</time>
      </trkpt>
      <trkpt lat="43.68973" lon="1.46637">
        <ele>175</ele>
        <time>2022-06-18T14:13:59Z</time>
      </trkpt>
      <trkpt lat="43.68989" lon="1.46633">
        <ele>174</ele>
        <time>2022-06-18T14:14:03Z</time>
      </trkpt>
      <trkpt lat="43.69053" lon="1.46562">
        <ele>170</ele>
        <time>2022-06-18T14:14:22Z</time>
      </trkpt>
      <trkpt lat="43.69071" lon="1.46575">
        <ele>168</ele>
        <time>2022-06-18T14:14:27Z</time>
      </trkpt>
      <trkpt lat="43.69082" lon="1.46573">
        <ele>167</ele>
        <time>2022-06-18T14:14:29Z</time>
      </trkpt>
      <trkpt lat="43.691" lon="1.46582">
        <ele>167</ele>
        <time>2022-06-18T14:14:34Z</time>
      </trkpt>
      <trkpt lat="43.69122" lon="1.46584">
        <ele>166</ele>
        <time>2022-06-18T14:14:39Z</time>
      </trkpt>
      <trkpt lat="43.69131" lon="1.46599">
        <ele>165</ele>
        <time>2022-06-18T14:14:42Z</time>
      </trkpt>
      <trkpt lat="43.69161" lon="1.46724">
        <ele>163</ele>
        <time>2022-06-18T14:15:04Z</time>
      </trkpt>
      <trkpt lat="43.69165" lon="1.46761">
        <ele>163</ele>
        <time>2022-06-18T14:15:11Z</time>
      </trkpt>
      <trkpt lat="43.69163" lon="1.46821">
        <ele>165</ele>
        <time>2022-06-18T14:15:21Z</time>
      </trkpt>
      <trkpt lat="43.69152" lon="1.46873">
        <ele>165</ele>
        <time>2022-06-18T14:15:30Z</time>
      </trkpt>
      <trkpt lat="43.69133" lon="1.46929">
        <ele>166</ele>
        <time>2022-06-18T14:15:40Z</time>
      </trkpt>
      <trkpt lat="43.69107" lon="1.4711">
        <ele>171</ele>
        <time>2022-06-18T14:16:12Z</time>
      </trkpt>
      <trkpt lat="43.69093" lon="1.47153">
        <ele>171</ele>
        <time>2022-06-18T14:16:20Z</time>
      </trkpt>
      <trkpt lat="43.69067" lon="1.47213">
        <ele>172</ele>
        <time>2022-06-18T14:16:31Z</time>
      </trkpt>
      <trkpt lat="43.6906" lon="1.47249">
        <ele>173</ele>
        <time>2022-06-18T14:16:38Z</time>
      </trkpt>
      <trkpt lat="43.69065" lon="1.47409">
        <ele>176</ele>
        <time>2022-06-18T14:17:05Z</time>
      </trkpt>
      <trkpt lat="43.69081" lon="1.47453">
        <ele>177</ele>
        <time>2022-06-18T14:17:13Z</time>
      </trkpt>
      <trkpt lat="43.69086" lon="1.47501">
        <ele>178</ele>
        <time>2022-06-18T14:17:21Z</time>
      </trkpt>
      <trkpt lat="43.69085" lon="1.47519">
        <ele>178</ele>
        <time>2022-06-18T14:17:24Z</time>
      </trkpt>
      <trkpt lat="43.69078" lon="1.47537">
        <ele>177</ele>
        <time>2022-06-18T14:17:28Z</time>
      </trkpt>
      <trkpt lat="43.69077" lon="1.4758">
        <ele>176</ele>
        <time>2022-06-18T14:17:35Z</time>
      </trkpt>
      <trkpt lat="43.69064" lon="1.47621">
        <ele>177</ele>
        <time>2022-06-18T14:17:43Z</time>
      </trkpt>
      <trkpt lat="43.69062" lon="1.47645">
        <ele>177</ele>
        <time>2022-06-18T14:17:47Z</time>
      </trkpt>
      <trkpt lat="43.69062" lon="1.47667">
        <ele>178</ele>
        <time>2022-06-18T14:17:50Z</time>
      </trkpt>
      <trkpt lat="43.6908" lon="1.4773">
        <ele>178</ele>
        <time>2022-06-18T14:18:02Z</time>
      </trkpt>
      <trkpt lat="43.69075" lon="1.47749">
        <ele>178</ele>
        <time>2022-06-18T14:18:05Z</time>
      </trkpt>
      <trkpt lat="43.69074" lon="1.47787">
        <ele>179</ele>
        <time>2022-06-18T14:18:12Z</time>
      </trkpt>
      <trkpt lat="43.69045" lon="1.47898">
        <ele>182</ele>
        <time>2022-06-18T14:18:32Z</time>
      </trkpt>
      <trkpt lat="43.69053" lon="1.47932">
        <ele>181</ele>
        <time>2022-06-18T14:18:38Z</time>
      </trkpt>
      <trkpt lat="43.69051" lon="1.47959">
        <ele>183</ele>
        <time>2022-06-18T14:18:42Z</time>
      </trkpt>
      <trkpt lat="43.69031" lon="1.48028">
        <ele>187</ele>
        <time>2022-06-18T14:18:55Z</time>
      </trkpt>
      <trkpt lat="43.69054" lon="1.48008">
        <ele>185</ele>
        <time>2022-06-18T14:19:01Z</time>
      </trkpt>
      <trkpt lat="43.69119" lon="1.47984">
        <ele>181</ele>
        <time>2022-06-18T14:19:17Z</time>
      </trkpt>
      <trkpt lat="43.69154" lon="1.4801">
        <ele>184</ele>
        <time>2022-06-18T14:19:26Z</time>
      </trkpt>
      <trkpt lat="43.69168" lon="1.47989">
        <ele>183</ele>
        <time>2022-06-18T14:19:31Z</time>
      </trkpt>
      <trkpt lat="43.69175" lon="1.47985">
        <ele>183</ele>
        <time>2022-06-18T14:19:33Z</time>
      </trkpt>
      <trkpt lat="43.69231" lon="1.48001">
        <ele>185</ele>
        <time>2022-06-18T14:19:46Z</time>
      </trkpt>
      <trkpt lat="43.69266" lon="1.47988">
        <ele>186</ele>
        <time>2022-06-18T14:19:54Z</time>
      </trkpt>
      <trkpt lat="43.69275" lon="1.47975">
        <ele>187</ele>
        <time>2022-06-18T14:19:58Z</time>
      </trkpt>
      <trkpt lat="43.6928" lon="1.47957">
        <ele>187</ele>
        <time>2022-06-18T14:20:01Z</time>
      </trkpt>
      <trkpt lat="43.69283" lon="1.47912">
        <ele>186</ele>
        <time>2022-06-18T14:20:08Z</time>
      </trkpt>
      <trkpt lat="43.6929" lon="1.47885">
        <ele>187</ele>
        <time>2022-06-18T14:20:13Z</time>
      </trkpt>
      <trkpt lat="43.69345" lon="1.4778">
        <ele>194</ele>
        <time>2022-06-18T14:20:35Z</time>
      </trkpt>
      <trkpt lat="43.69357" lon="1.47776">
        <ele>194</ele>
        <time>2022-06-18T14:20:38Z</time>
      </trkpt>
      <trkpt lat="43.69436" lon="1.47774">
        <ele>199</ele>
        <time>2022-06-18T14:20:56Z</time>
      </trkpt>
      <trkpt lat="43.69449" lon="1.47758">
        <ele>199</ele>
        <time>2022-06-18T14:21:01Z</time>
      </trkpt>
      <trkpt lat="43.69484" lon="1.47681">
        <ele>205</ele>
        <time>2022-06-18T14:21:16Z</time>
      </trkpt>
      <trkpt lat="43.69495" lon="1.47602">
        <ele>207</ele>
        <time>2022-06-18T14:21:29Z</time>
      </trkpt>
      <trkpt lat="43.69501" lon="1.47583">
        <ele>207</ele>
        <time>2022-06-18T14:21:33Z</time>
      </trkpt>
      <trkpt lat="43.69516" lon="1.47553">
        <ele>208</ele>
        <time>2022-06-18T14:21:39Z</time>
      </trkpt>
      <trkpt lat="43.69543" lon="1.47515">
        <ele>209</ele>
        <time>2022-06-18T14:21:48Z</time>
      </trkpt>
      <trkpt lat="43.69566" lon="1.47534">
        <ele>210</ele>
        <time>2022-06-18T14:21:54Z</time>
      </trkpt>
      <trkpt lat="43.69577" lon="1.47551">
        <ele>210</ele>
        <time>2022-06-18T14:21:58Z</time>
      </trkpt>
      <trkpt lat="43.69588" lon="1.47611">
        <ele>210</ele>
        <time>2022-06-18T14:22:09Z</time>
      </trkpt>
      <trkpt lat="43.69639" lon="1.47733">
        <ele>211</ele>
        <time>2022-06-18T14:22:32Z</time>
      </trkpt>
      <trkpt lat="43.69645" lon="1.47756">
        <ele>212</ele>
        <time>2022-06-18T14:22:37Z</time>
      </trkpt>
      <trkpt lat="43.69659" lon="1.47778">
        <ele>212</ele>
        <time>2022-06-18T14:22:42Z</time>
      </trkpt>
      <trkpt lat="43.69703" lon="1.47824">
        <ele>211</ele>
        <time>2022-06-18T14:22:54Z</time>
      </trkpt>
      <trkpt lat="43.69732" lon="1.47839">
        <ele>211</ele>
        <time>2022-06-18T14:23:02Z</time>
      </trkpt>
      <trkpt lat="43.69756" lon="1.47838">
        <ele>211</ele>
        <time>2022-06-18T14:23:07Z</time>
      </trkpt>
      <trkpt lat="43.69789" lon="1.47828">
        <ele>210</ele>
        <time>2022-06-18T14:23:15Z</time>
      </trkpt>
      <trkpt lat="43.69873" lon="1.47795">
        <ele>207</ele>
        <time>2022-06-18T14:23:36Z</time>
      </trkpt>
      <trkpt lat="43.69892" lon="1.47776">
        <ele>207</ele>
        <time>2022-06-18T14:23:41Z</time>
      </trkpt>
      <trkpt lat="43.6998" lon="1.47655">
        <ele>202</ele>
        <time>2022-06-18T14:24:10Z</time>
      </trkpt>
      <trkpt lat="43.70012" lon="1.47628">
        <ele>201</ele>
        <time>2022-06-18T14:24:19Z</time>
      </trkpt>
      <trkpt lat="43.70038" lon="1.47619">
        <ele>201</ele>
        <time>2022-06-18T14:24:25Z</time>
      </trkpt>
      <trkpt lat="43.70056" lon="1.47619">
        <ele>200</ele>
        <time>2022-06-18T14:24:29Z</time>
      </trkpt>
      <trkpt lat="43.70115" lon="1.4763">
        <ele>199</ele>
        <time>2022-06-18T14:24:43Z</time>
      </trkpt>
      <trkpt lat="43.70133" lon="1.47628">
        <ele>199</ele>
        <time>2022-06-18T14:24:47Z</time>
      </trkpt>
      <trkpt lat="43.70189" lon="1.47606">
        <ele>199</ele>
        <time>2022-06-18T14:25:01Z</time>
      </trkpt>
      <trkpt lat="43.70217" lon="1.47618">
        <ele>197</ele>
        <time>2022-06-18T14:25:08Z</time>
      </trkpt>
      <trkpt lat="43.70265" lon="1.47655">
        <ele>195</ele>
        <time>2022-06-18T14:25:21Z</time>
      </trkpt>
      <trkpt lat="43.70307" lon="1.47681">
        <ele>194</ele>
        <time>2022-06-18T14:25:31Z</time>
      </trkpt>
      <trkpt lat="43.7047" lon="1.47762">
        <ele>187</ele>
        <time>2022-06-18T14:26:12Z</time>
      </trkpt>
      <trkpt lat="43.70506" lon="1.47772">
        <ele>187</ele>
        <time>2022-06-18T14:26:20Z</time>
      </trkpt>
      <trkpt lat="43.70629" lon="1.47789">
        <ele>186</ele>
        <time>2022-06-18T14:26:49Z</time>
      </trkpt>
      <trkpt lat="43.70708" lon="1.47807">
        <ele>186</ele>
        <time>2022-06-18T14:27:08Z</time>
      </trkpt>
      <trkpt lat="43.70802" lon="1.47854">
        <ele>185</ele>
        <time>2022-06-18T14:27:31Z</time>
      </trkpt>
      <trkpt lat="43.70822" lon="1.4786">
        <ele>185</ele>
        <time>2022-06-18T14:27:36Z</time>
      </trkpt>
      <trkpt lat="43.70842" lon="1.47858">
        <ele>184</ele>
        <time>2022-06-18T14:27:41Z</time>
      </trkpt>
      <trkpt lat="43.70884" lon="1.47821">
        <ele>182</ele>
        <time>2022-06-18T14:27:52Z</time>
      </trkpt>
      <trkpt lat="43.7092" lon="1.47802">
        <ele>181</ele>
        <time>2022-06-18T14:28:01Z</time>
      </trkpt>
      <trkpt lat="43.70952" lon="1.47801">
        <ele>180</ele>
        <time>2022-06-18T14:28:09Z</time>
      </trkpt>
      <trkpt lat="43.70975" lon="1.47806">
        <ele>180</ele>
        <time>2022-06-18T14:28:14Z</time>
      </trkpt>
      <trkpt lat="43.71021" lon="1.47837">
        <ele>180</ele>
        <time>2022-06-18T14:28:26Z</time>
      </trkpt>
      <trkpt lat="43.71047" lon="1.47848">
        <ele>181</ele>
        <time>2022-06-18T14:28:33Z</time>
      </trkpt>
      <trkpt lat="43.71079" lon="1.47884">
        <ele>182</ele>
        <time>2022-06-18T14:28:42Z</time>
      </trkpt>
      <trkpt lat="43.71132" lon="1.47927">
        <ele>181</ele>
        <time>2022-06-18T14:28:57Z</time>
      </trkpt>
      <trkpt lat="43.7115" lon="1.47937">
        <ele>180</ele>
        <time>2022-06-18T14:29:01Z</time>
      </trkpt>
      <trkpt lat="43.71163" lon="1.47939">
        <ele>180</ele>
        <time>2022-06-18T14:29:04Z</time>
      </trkpt>
      <trkpt lat="43.71181" lon="1.4793">
        <ele>180</ele>
        <time>2022-06-18T14:29:09Z</time>
      </trkpt>
      <trkpt lat="43.71212" lon="1.47892">
        <ele>179</ele>
        <time>2022-06-18T14:29:18Z</time>
      </trkpt>
      <trkpt lat="43.71244" lon="1.47792">
        <ele>177</ele>
        <time>2022-06-18T14:29:37Z</time>
      </trkpt>
      <trkpt lat="43.71284" lon="1.47696">
        <ele>175</ele>
        <time>2022-06-18T14:29:55Z</time>
      </trkpt>
      <trkpt lat="43.71294" lon="1.47684">
        <ele>175</ele>
        <time>2022-06-18T14:29:59Z</time>
      </trkpt>
      <trkpt lat="43.71332" lon="1.47713">
        <ele>175</ele>
        <time>2022-06-18T14:30:09Z</time>
      </trkpt>
      <trkpt lat="43.71408" lon="1.47787">
        <ele>174</ele>
        <time>2022-06-18T14:30:30Z</time>
      </trkpt>
      <trkpt lat="43.71478" lon="1.47843">
        <ele>176</ele>
        <time>2022-06-18T14:30:49Z</time>
      </trkpt>
      <trkpt lat="43.71539" lon="1.47902">
        <ele>178</ele>
        <time>2022-06-18T14:31:07Z</time>
      </trkpt>
      <trkpt lat="43.71549" lon="1.47902">
        <ele>178</ele>
        <time>2022-06-18T14:31:09Z</time>
      </trkpt>
      <trkpt lat="43.71636" lon="1.47776">
        <ele>175</ele>
        <time>2022-06-18T14:31:38Z</time>
      </trkpt>
      <trkpt lat="43.71887" lon="1.47374">
        <ele>168</ele>
        <time>2022-06-18T14:33:08Z</time>
      </trkpt>
      <trkpt lat="43.72012" lon="1.47185">
        <ele>167</ele>
        <time>2022-06-18T14:33:51Z</time>
      </trkpt>
      <trkpt lat="43.72055" lon="1.47131">
        <ele>168</ele>
        <time>2022-06-18T14:34:05Z</time>
      </trkpt>
      <trkpt lat="43.72071" lon="1.47119">
        <ele>168</ele>
        <time>2022-06-18T14:34:09Z</time>
      </trkpt>
      <trkpt lat="43.72073" lon="1.47101">
        <ele>167</ele>
        <time>2022-06-18T14:34:12Z</time>
      </trkpt>
      <trkpt lat="43.72089" lon="1.47093">
        <ele>167</ele>
        <time>2022-06-18T14:34:16Z</time>
      </trkpt>
      <trkpt lat="43.72155" lon="1.47027">
        <ele>167</ele>
        <time>2022-06-18T14:34:35Z</time>
      </trkpt>
      <trkpt lat="43.72213" lon="1.4698">
        <ele>166</ele>
        <time>2022-06-18T14:34:51Z</time>
      </trkpt>
      <trkpt lat="43.72221" lon="1.46978">
        <ele>166</ele>
        <time>2022-06-18T14:34:53Z</time>
      </trkpt>
      <trkpt lat="43.72255" lon="1.46955">
        <ele>165</ele>
        <time>2022-06-18T14:36:13Z</time>
      </trkpt>
      <trkpt lat="43.72295" lon="1.46927">
        <ele>165</ele>
        <time>2022-06-18T14:36:24Z</time>
      </trkpt>
      <trkpt lat="43.72311" lon="1.46957">
        <ele>170</ele>
        <time>2022-06-18T14:36:30Z</time>
      </trkpt>
      <trkpt lat="43.72314" lon="1.46973">
        <ele>172</ele>
        <time>2022-06-18T14:36:33Z</time>
      </trkpt>
      <trkpt lat="43.72333" lon="1.46965">
        <ele>172</ele>
        <time>2022-06-18T14:36:38Z</time>
      </trkpt>
      <trkpt lat="43.7234" lon="1.46969">
        <ele>173</ele>
        <time>2022-06-18T14:36:39Z</time>
      </trkpt>
      <trkpt lat="43.72358" lon="1.47032">
        <ele>178</ele>
        <time>2022-06-18T14:36:51Z</time>
      </trkpt>
      <trkpt lat="43.72363" lon="1.47039">
        <ele>179</ele>
        <time>2022-06-18T14:36:52Z</time>
      </trkpt>
      <trkpt lat="43.72386" lon="1.47033">
        <ele>178</ele>
        <time>2022-06-18T14:36:58Z</time>
      </trkpt>
      <trkpt lat="43.724" lon="1.47038">
        <ele>179</ele>
        <time>2022-06-18T14:37:01Z</time>
      </trkpt>
      <trkpt lat="43.72416" lon="1.47061">
        <ele>179</ele>
        <time>2022-06-18T14:37:07Z</time>
      </trkpt>
      <trkpt lat="43.72434" lon="1.47072">
        <ele>178</ele>
        <time>2022-06-18T14:37:11Z</time>
      </trkpt>
      <trkpt lat="43.72446" lon="1.47105">
        <ele>177</ele>
        <time>2022-06-18T14:37:17Z</time>
      </trkpt>
      <trkpt lat="43.72464" lon="1.47135">
        <ele>176</ele>
        <time>2022-06-18T14:37:24Z</time>
      </trkpt>
      <trkpt lat="43.72467" lon="1.4715">
        <ele>176</ele>
        <time>2022-06-18T14:37:27Z</time>
      </trkpt>
      <trkpt lat="43.72433" lon="1.47194">
        <ele>177</ele>
        <time>2022-06-18T14:37:38Z</time>
      </trkpt>
      <trkpt lat="43.72511" lon="1.47302">
        <ele>173</ele>
        <time>2022-06-18T14:38:03Z</time>
      </trkpt>
      <trkpt lat="43.72521" lon="1.47309">
        <ele>172</ele>
        <time>2022-06-18T14:38:06Z</time>
      </trkpt>
      <trkpt lat="43.72546" lon="1.47316">
        <ele>171</ele>
        <time>2022-06-18T14:38:12Z</time>
      </trkpt>
      <trkpt lat="43.72553" lon="1.47314">
        <ele>170</ele>
        <time>2022-06-18T14:38:14Z</time>
      </trkpt>
      <trkpt lat="43.72558" lon="1.47305">
        <ele>170</ele>
        <time>2022-06-18T14:38:15Z</time>
      </trkpt>
      <trkpt lat="43.7256" lon="1.47266">
        <ele>171</ele>
        <time>2022-06-18T14:38:22Z</time>
      </trkpt>
      <trkpt lat="43.72554" lon="1.47225">
        <ele>172</ele>
        <time>2022-06-18T14:38:29Z</time>
      </trkpt>
      <trkpt lat="43.7256" lon="1.47196">
        <ele>172</ele>
        <time>2022-06-18T14:38:34Z</time>
      </trkpt>
      <trkpt lat="43.72573" lon="1.47168">
        <ele>173</ele>
        <time>2022-06-18T14:38:40Z</time>
      </trkpt>
      <trkpt lat="43.7261" lon="1.47126">
        <ele>171</ele>
        <time>2022-06-18T14:38:51Z</time>
      </trkpt>
      <trkpt lat="43.72639" lon="1.4708">
        <ele>168</ele>
        <time>2022-06-18T14:39:01Z</time>
      </trkpt>
      <trkpt lat="43.72643" lon="1.47076">
        <ele>168</ele>
        <time>2022-06-18T14:39:02Z</time>
      </trkpt>
      <trkpt lat="43.72656" lon="1.47082">
        <ele>167</ele>
        <time>2022-06-18T14:39:06Z</time>
      </trkpt>
      <trkpt lat="43.72684" lon="1.47115">
        <ele>164</ele>
        <time>2022-06-18T14:39:14Z</time>
      </trkpt>
      <trkpt lat="43.72705" lon="1.47103">
        <ele>161</ele>
        <time>2022-06-18T14:39:20Z</time>
      </trkpt>
      <trkpt lat="43.72717" lon="1.4711">
        <ele>160</ele>
        <time>2022-06-18T14:39:23Z</time>
      </trkpt>
      <trkpt lat="43.72726" lon="1.4711">
        <ele>159</ele>
        <time>2022-06-18T14:39:25Z</time>
      </trkpt>
      <trkpt lat="43.72751" lon="1.47097">
        <ele>156</ele>
        <time>2022-06-18T14:39:31Z</time>
      </trkpt>
      <trkpt lat="43.72763" lon="1.47084">
        <ele>155</ele>
        <time>2022-06-18T14:39:34Z</time>
      </trkpt>
      <trkpt lat="43.72765" lon="1.47077">
        <ele>155</ele>
        <time>2022-06-18T14:39:36Z</time>
      </trkpt>
      <trkpt lat="43.7276" lon="1.47065">
        <ele>155</ele>
        <time>2022-06-18T14:39:38Z</time>
      </trkpt>
      <trkpt lat="43.72708" lon="1.47004">
        <ele>159</ele>
        <time>2022-06-18T14:39:54Z</time>
      </trkpt>
      <trkpt lat="43.72576" lon="1.46873">
        <ele>157</ele>
        <time>2022-06-18T14:40:32Z</time>
      </trkpt>
      <trkpt lat="43.72549" lon="1.46852">
        <ele>156</ele>
        <time>2022-06-18T14:40:39Z</time>
      </trkpt>
      <trkpt lat="43.72515" lon="1.46839">
        <ele>155</ele>
        <time>2022-06-18T14:40:47Z</time>
      </trkpt>
      <trkpt lat="43.72483" lon="1.46833">
        <ele>156</ele>
        <time>2022-06-18T14:40:55Z</time>
      </trkpt>
      <trkpt lat="43.72458" lon="1.46835">
        <ele>159</ele>
        <time>2022-06-18T14:41:01Z</time>
      </trkpt>
      <trkpt lat="43.7241" lon="1.46852">
        <ele>164</ele>
        <time>2022-06-18T14:41:12Z</time>
      </trkpt>
      <trkpt lat="43.72241" lon="1.46967">
        <ele>166</ele>
        <time>2022-06-18T14:41:56Z</time>
      </trkpt>
      <trkpt lat="43.72238" lon="1.46968">
        <ele>166</ele>
        <time>2022-06-18T14:41:57Z</time>
      </trkpt>
      <trkpt lat="43.72235" lon="1.46961">
        <ele>165</ele>
        <time>2022-06-18T14:41:58Z</time>
      </trkpt>
      <trkpt lat="43.7226" lon="1.46905">
        <ele>161</ele>
        <time>2022-06-18T14:42:10Z</time>
      </trkpt>
      <trkpt lat="43.72256" lon="1.46898">
        <ele>161</ele>
        <time>2022-06-18T14:42:11Z</time>
      </trkpt>
      <trkpt lat="43.72234" lon="1.46905">
        <ele>160</ele>
        <time>2022-06-18T14:42:16Z</time>
      </trkpt>
      <trkpt lat="43.7215" lon="1.46975">
        <ele>163</ele>
        <time>2022-06-18T14:42:39Z</time>
      </trkpt>
      <trkpt lat="43.72133" lon="1.46967">
        <ele>163</ele>
        <time>2022-06-18T14:42:43Z</time>
      </trkpt>
      <trkpt lat="43.72125" lon="1.46968">
        <ele>164</ele>
        <time>2022-06-18T14:42:45Z</time>
      </trkpt>
      <trkpt lat="43.72069" lon="1.47007">
        <ele>165</ele>
        <time>2022-06-18T14:43:00Z</time>
      </trkpt>
      <trkpt lat="43.72028" lon="1.47023">
        <ele>167</ele>
        <time>2022-06-18T14:43:10Z</time>
      </trkpt>
      <trkpt lat="43.72016" lon="1.47026">
        <ele>167</ele>
        <time>2022-06-18T14:43:13Z</time>
      </trkpt>
      <trkpt lat="43.7201" lon="1.47023">
        <ele>167</ele>
        <time>2022-06-18T14:43:14Z</time>
      </trkpt>
      <trkpt lat="43.72009" lon="1.46991">
        <ele>168</ele>
        <time>2022-06-18T14:43:20Z</time>
      </trkpt>
      <trkpt lat="43.72025" lon="1.46958">
        <ele>167</ele>
        <time>2022-06-18T14:43:26Z</time>
      </trkpt>
      <trkpt lat="43.72061" lon="1.46932">
        <ele>166</ele>
        <time>2022-06-18T14:43:36Z</time>
      </trkpt>
      <trkpt lat="43.72087" lon="1.46934">
        <ele>165</ele>
        <time>2022-06-18T14:43:42Z</time>
      </trkpt>
      <trkpt lat="43.72112" lon="1.46927">
        <ele>164</ele>
        <time>2022-06-18T14:43:48Z</time>
      </trkpt>
      <trkpt lat="43.72142" lon="1.46881">
        <ele>164</ele>
        <time>2022-06-18T14:43:58Z</time>
      </trkpt>
      <trkpt lat="43.72196" lon="1.46815">
        <ele>164</ele>
        <time>2022-06-18T14:44:15Z</time>
      </trkpt>
      <trkpt lat="43.72253" lon="1.4678">
        <ele>163</ele>
        <time>2022-06-18T14:44:30Z</time>
      </trkpt>
      <trkpt lat="43.72297" lon="1.46727">
        <ele>163</ele>
        <time>2022-06-18T14:44:43Z</time>
      </trkpt>
      <trkpt lat="43.72303" lon="1.46715">
        <ele>163</ele>
        <time>2022-06-18T14:44:46Z</time>
      </trkpt>
      <trkpt lat="43.72298" lon="1.46701">
        <ele>163</ele>
        <time>2022-06-18T14:44:48Z</time>
      </trkpt>
      <trkpt lat="43.72307" lon="1.46686">
        <ele>163</ele>
        <time>2022-06-18T14:44:52Z</time>
      </trkpt>
      <trkpt lat="43.72307" lon="1.46675">
        <ele>164</ele>
        <time>2022-06-18T14:44:54Z</time>
      </trkpt>
      <trkpt lat="43.72278" lon="1.46642">
        <ele>166</ele>
        <time>2022-06-18T14:45:02Z</time>
      </trkpt>
      <trkpt lat="43.72235" lon="1.46618">
        <ele>168</ele>
        <time>2022-06-18T14:45:13Z</time>
      </trkpt>
      <trkpt lat="43.72181" lon="1.46603">
        <ele>170</ele>
        <time>2022-06-18T14:45:26Z</time>
      </trkpt>
      <trkpt lat="43.72173" lon="1.46599">
        <ele>170</ele>
        <time>2022-06-18T14:45:28Z</time>
      </trkpt>
      <trkpt lat="43.72171" lon="1.4659">
        <ele>171</ele>
        <time>2022-06-18T14:45:30Z</time>
      </trkpt>
      <trkpt lat="43.72178" lon="1.46557">
        <ele>170</ele>
        <time>2022-06-18T14:45:35Z</time>
      </trkpt>
      <trkpt lat="43.72218" lon="1.46477">
        <ele>168</ele>
        <time>2022-06-18T14:45:52Z</time>
      </trkpt>
      <trkpt lat="43.72228" lon="1.4648">
        <ele>168</ele>
        <time>2022-06-18T14:45:54Z</time>
      </trkpt>
      <trkpt lat="43.72259" lon="1.46505">
        <ele>168</ele>
        <time>2022-06-18T14:46:03Z</time>
      </trkpt>
      <trkpt lat="43.72318" lon="1.46563">
        <ele>165</ele>
        <time>2022-06-18T14:46:20Z</time>
      </trkpt>
      <trkpt lat="43.72332" lon="1.46571">
        <ele>164</ele>
        <time>2022-06-18T14:46:23Z</time>
      </trkpt>
      <trkpt lat="43.72341" lon="1.46566">
        <ele>164</ele>
        <time>2022-06-18T14:46:25Z</time>
      </trkpt>
      <trkpt lat="43.72361" lon="1.46523">
        <ele>164</ele>
        <time>2022-06-18T14:46:34Z</time>
      </trkpt>
      <trkpt lat="43.72374" lon="1.46461">
        <ele>165</ele>
        <time>2022-06-18T14:46:45Z</time>
      </trkpt>
      <trkpt lat="43.72355" lon="1.46396">
        <ele>167</ele>
        <time>2022-06-18T14:46:57Z</time>
      </trkpt>
      <trkpt lat="43.72341" lon="1.46304">
        <ele>167</ele>
        <time>2022-06-18T14:47:13Z</time>
      </trkpt>
      <trkpt lat="43.72326" lon="1.46274">
        <ele>167</ele>
        <time>2022-06-18T14:47:19Z</time>
      </trkpt>
      <trkpt lat="43.72322" lon="1.46255">
        <ele>166</ele>
        <time>2022-06-18T14:47:22Z</time>
      </trkpt>
      <trkpt lat="43.72327" lon="1.46202">
        <ele>168</ele>
        <time>2022-06-18T14:47:31Z</time>
      </trkpt>
      <trkpt lat="43.72325" lon="1.46105">
        <ele>170</ele>
        <time>2022-06-18T14:47:47Z</time>
      </trkpt>
      <trkpt lat="43.72321" lon="1.46081">
        <ele>171</ele>
        <time>2022-06-18T14:47:52Z</time>
      </trkpt>
      <trkpt lat="43.72338" lon="1.46151">
        <ele>170</ele>
        <time>2022-06-18T14:48:04Z</time>
      </trkpt>
      <trkpt lat="43.7235" lon="1.46174">
        <ele>171</ele>
        <time>2022-06-18T14:48:09Z</time>
      </trkpt>
      <trkpt lat="43.72347" lon="1.46216">
        <ele>169</ele>
        <time>2022-06-18T14:48:16Z</time>
      </trkpt>
      <trkpt lat="43.72376" lon="1.46255">
        <ele>171</ele>
        <time>2022-06-18T14:48:25Z</time>
      </trkpt>
      <trkpt lat="43.72384" lon="1.46277">
        <ele>171</ele>
        <time>2022-06-18T14:48:30Z</time>
      </trkpt>
      <trkpt lat="43.72388" lon="1.46359">
        <ele>169</ele>
        <time>2022-06-18T14:48:43Z</time>
      </trkpt>
      <trkpt lat="43.72401" lon="1.46454">
        <ele>166</ele>
        <time>2022-06-18T14:49:00Z</time>
      </trkpt>
      <trkpt lat="43.72404" lon="1.46525">
        <ele>164</ele>
        <time>2022-06-18T14:49:12Z</time>
      </trkpt>
      <trkpt lat="43.72424" lon="1.46579">
        <ele>164</ele>
        <time>2022-06-18T14:49:22Z</time>
      </trkpt>
      <trkpt lat="43.72451" lon="1.46618">
        <ele>166</ele>
        <time>2022-06-18T14:49:31Z</time>
      </trkpt>
      <trkpt lat="43.72451" lon="1.46648">
        <ele>163</ele>
        <time>2022-06-18T14:49:36Z</time>
      </trkpt>
      <trkpt lat="43.72461" lon="1.46679">
        <ele>161</ele>
        <time>2022-06-18T14:49:42Z</time>
      </trkpt>
      <trkpt lat="43.7247" lon="1.46689">
        <ele>160</ele>
        <time>2022-06-18T14:49:45Z</time>
      </trkpt>
      <trkpt lat="43.72479" lon="1.4669">
        <ele>161</ele>
        <time>2022-06-18T14:49:47Z</time>
      </trkpt>
      <trkpt lat="43.72511" lon="1.4668">
        <ele>163</ele>
        <time>2022-06-18T14:49:54Z</time>
      </trkpt>
      <trkpt lat="43.72519" lon="1.46664">
        <ele>165</ele>
        <time>2022-06-18T14:49:58Z</time>
      </trkpt>
      <trkpt lat="43.72538" lon="1.46651">
        <ele>167</ele>
        <time>2022-06-18T14:50:03Z</time>
      </trkpt>
      <trkpt lat="43.72557" lon="1.46606">
        <ele>174</ele>
        <time>2022-06-18T14:50:11Z</time>
      </trkpt>
      <trkpt lat="43.72548" lon="1.46585">
        <ele>177</ele>
        <time>2022-06-18T14:50:16Z</time>
      </trkpt>
      <trkpt lat="43.72513" lon="1.4657">
        <ele>178</ele>
        <time>2022-06-18T14:50:24Z</time>
      </trkpt>
      <trkpt lat="43.72504" lon="1.46562">
        <ele>179</ele>
        <time>2022-06-18T14:50:27Z</time>
      </trkpt>
      <trkpt lat="43.72486" lon="1.4654">
        <ele>177</ele>
        <time>2022-06-18T14:50:32Z</time>
      </trkpt>
      <trkpt lat="43.72479" lon="1.46524">
        <ele>176</ele>
        <time>2022-06-18T14:50:35Z</time>
      </trkpt>
      <trkpt lat="43.72472" lon="1.46486">
        <ele>175</ele>
        <time>2022-06-18T14:50:42Z</time>
      </trkpt>
      <trkpt lat="43.72461" lon="1.46456">
        <ele>173</ele>
        <time>2022-06-18T14:50:48Z</time>
      </trkpt>
      <trkpt lat="43.72463" lon="1.46408">
        <ele>174</ele>
        <time>2022-06-18T14:50:56Z</time>
      </trkpt>
      <trkpt lat="43.72453" lon="1.46375">
        <ele>174</ele>
        <time>2022-06-18T14:51:02Z</time>
      </trkpt>
      <trkpt lat="43.72455" lon="1.46328">
        <ele>176</ele>
        <time>2022-06-18T14:51:10Z</time>
      </trkpt>
      <trkpt lat="43.72452" lon="1.46312">
        <ele>176</ele>
        <time>2022-06-18T14:51:13Z</time>
      </trkpt>
      <trkpt lat="43.7243" lon="1.46276">
        <ele>175</ele>
        <time>2022-06-18T14:51:20Z</time>
      </trkpt>
      <trkpt lat="43.72422" lon="1.46223">
        <ele>177</ele>
        <time>2022-06-18T14:51:30Z</time>
      </trkpt>
      <trkpt lat="43.72423" lon="1.46205">
        <ele>179</ele>
        <time>2022-06-18T14:51:33Z</time>
      </trkpt>
      <trkpt lat="43.72448" lon="1.4625">
        <ele>178</ele>
        <time>2022-06-18T14:51:42Z</time>
      </trkpt>
      <trkpt lat="43.72491" lon="1.46352">
        <ele>180</ele>
        <time>2022-06-18T14:52:02Z</time>
      </trkpt>
      <trkpt lat="43.72503" lon="1.46445">
        <ele>180</ele>
        <time>2022-06-18T14:52:18Z</time>
      </trkpt>
      <trkpt lat="43.72498" lon="1.46494">
        <ele>180</ele>
        <time>2022-06-18T14:52:26Z</time>
      </trkpt>
      <trkpt lat="43.725" lon="1.46529">
        <ele>179</ele>
        <time>2022-06-18T14:52:32Z</time>
      </trkpt>
      <trkpt lat="43.72508" lon="1.46539">
        <ele>179</ele>
        <time>2022-06-18T14:52:35Z</time>
      </trkpt>
      <trkpt lat="43.72527" lon="1.46549">
        <ele>179</ele>
        <time>2022-06-18T14:52:40Z</time>
      </trkpt>
      <trkpt lat="43.72585" lon="1.46561">
        <ele>178</ele>
        <time>2022-06-18T14:52:53Z</time>
      </trkpt>
      <trkpt lat="43.72603" lon="1.46561">
        <ele>178</ele>
        <time>2022-06-18T14:52:58Z</time>
      </trkpt>
      <trkpt lat="43.7261" lon="1.46566">
        <ele>178</ele>
        <time>2022-06-18T14:52:59Z</time>
      </trkpt>
      <trkpt lat="43.72621" lon="1.46549">
        <ele>179</ele>
        <time>2022-06-18T14:53:03Z</time>
      </trkpt>
      <trkpt lat="43.72636" lon="1.46539">
        <ele>179</ele>
        <time>2022-06-18T14:53:07Z</time>
      </trkpt>
      <trkpt lat="43.72677" lon="1.46471">
        <ele>181</ele>
        <time>2022-06-18T14:53:22Z</time>
      </trkpt>
      <trkpt lat="43.72719" lon="1.46447">
        <ele>181</ele>
        <time>2022-06-18T14:53:33Z</time>
      </trkpt>
      <trkpt lat="43.72744" lon="1.46398">
        <ele>180</ele>
        <time>2022-06-18T14:53:43Z</time>
      </trkpt>
      <trkpt lat="43.72747" lon="1.46383">
        <ele>179</ele>
        <time>2022-06-18T14:53:45Z</time>
      </trkpt>
      <trkpt lat="43.72794" lon="1.46318">
        <ele>177</ele>
        <time>2022-06-18T14:54:01Z</time>
      </trkpt>
      <trkpt lat="43.72801" lon="1.46287">
        <ele>177</ele>
        <time>2022-06-18T14:54:06Z</time>
      </trkpt>
      <trkpt lat="43.72793" lon="1.46273">
        <ele>177</ele>
        <time>2022-06-18T14:54:09Z</time>
      </trkpt>
      <trkpt lat="43.72792" lon="1.46263">
        <ele>177</ele>
        <time>2022-06-18T14:54:11Z</time>
      </trkpt>
      <trkpt lat="43.72804" lon="1.46229">
        <ele>178</ele>
        <time>2022-06-18T14:54:18Z</time>
      </trkpt>
      <trkpt lat="43.72832" lon="1.46194">
        <ele>179</ele>
        <time>2022-06-18T14:54:26Z</time>
      </trkpt>
      <trkpt lat="43.72849" lon="1.46182">
        <ele>179</ele>
        <time>2022-06-18T14:54:31Z</time>
      </trkpt>
      <trkpt lat="43.72866" lon="1.46156">
        <ele>178</ele>
        <time>2022-06-18T14:54:37Z</time>
      </trkpt>
      <trkpt lat="43.729" lon="1.4614">
        <ele>176</ele>
        <time>2022-06-18T14:55:18Z</time>
      </trkpt>
      <trkpt lat="43.72917" lon="1.46148">
        <ele>175</ele>
        <time>2022-06-18T14:55:23Z</time>
      </trkpt>
      <trkpt lat="43.72938" lon="1.4613">
        <ele>173</ele>
        <time>2022-06-18T14:55:28Z</time>
      </trkpt>
      <trkpt lat="43.72955" lon="1.46134">
        <ele>171</ele>
        <time>2022-06-18T14:55:32Z</time>
      </trkpt>
      <trkpt lat="43.72964" lon="1.46132">
        <ele>170</ele>
        <time>2022-06-18T14:55:35Z</time>
      </trkpt>
      <trkpt lat="43.72975" lon="1.46124">
        <ele>169</ele>
        <time>2022-06-18T14:55:37Z</time>
      </trkpt>
      <trkpt lat="43.72991" lon="1.461">
        <ele>167</ele>
        <time>2022-06-18T14:55:43Z</time>
      </trkpt>
      <trkpt lat="43.72999" lon="1.46099">
        <ele>166</ele>
        <time>2022-06-18T14:55:45Z</time>
      </trkpt>
      <trkpt lat="43.73013" lon="1.46108">
        <ele>165</ele>
        <time>2022-06-18T14:55:48Z</time>
      </trkpt>
      <trkpt lat="43.7305" lon="1.46138">
        <ele>162</ele>
        <time>2022-06-18T14:55:58Z</time>
      </trkpt>
      <trkpt lat="43.73103" lon="1.46191">
        <ele>159</ele>
        <time>2022-06-18T14:56:14Z</time>
      </trkpt>
      <trkpt lat="43.73198" lon="1.46333">
        <ele>156</ele>
        <time>2022-06-18T14:56:46Z</time>
      </trkpt>
      <trkpt lat="43.73275" lon="1.46408">
        <ele>154</ele>
        <time>2022-06-18T14:57:08Z</time>
      </trkpt>
      <trkpt lat="43.73312" lon="1.46454">
        <ele>150</ele>
        <time>2022-06-18T14:57:20Z</time>
      </trkpt>
      <trkpt lat="43.73316" lon="1.46463">
        <ele>149</ele>
        <time>2022-06-18T14:57:22Z</time>
      </trkpt>
      <trkpt lat="43.73314" lon="1.46468">
        <ele>149</ele>
        <time>2022-06-18T14:57:23Z</time>
      </trkpt>
      <trkpt lat="43.73307" lon="1.46469">
        <ele>150</ele>
        <time>2022-06-18T14:57:24Z</time>
      </trkpt>
      <trkpt lat="43.73288" lon="1.46461">
        <ele>153</ele>
        <time>2022-06-18T14:57:29Z</time>
      </trkpt>
      <trkpt lat="43.73278" lon="1.46464">
        <ele>154</ele>
        <time>2022-06-18T14:57:31Z</time>
      </trkpt>
      <trkpt lat="43.73257" lon="1.46493">
        <ele>157</ele>
        <time>2022-06-18T14:57:38Z</time>
      </trkpt>
      <trkpt lat="43.73234" lon="1.4655">
        <ele>156</ele>
        <time>2022-06-18T14:57:49Z</time>
      </trkpt>
      <trkpt lat="43.73228" lon="1.46552">
        <ele>157</ele>
        <time>2022-06-18T14:57:51Z</time>
      </trkpt>
      <trkpt lat="43.7318" lon="1.46504">
        <ele>161</ele>
        <time>2022-06-18T14:58:05Z</time>
      </trkpt>
      <trkpt lat="43.73164" lon="1.46474">
        <ele>162</ele>
        <time>2022-06-18T14:58:11Z</time>
      </trkpt>
      <trkpt lat="43.73153" lon="1.46468">
        <ele>163</ele>
        <time>2022-06-18T14:58:14Z</time>
      </trkpt>
      <trkpt lat="43.73119" lon="1.4647">
        <ele>165</ele>
        <time>2022-06-18T14:58:22Z</time>
      </trkpt>
      <trkpt lat="43.73093" lon="1.46457">
        <ele>167</ele>
        <time>2022-06-18T14:58:28Z</time>
      </trkpt>
      <trkpt lat="43.7306" lon="1.4646">
        <ele>168</ele>
        <time>2022-06-18T14:58:36Z</time>
      </trkpt>
      <trkpt lat="43.73016" lon="1.46507">
        <ele>170</ele>
        <time>2022-06-18T14:58:49Z</time>
      </trkpt>
      <trkpt lat="43.72987" lon="1.46564">
        <ele>172</ele>
        <time>2022-06-18T14:59:01Z</time>
      </trkpt>
      <trkpt lat="43.7297" lon="1.46584">
        <ele>173</ele>
        <time>2022-06-18T14:59:06Z</time>
      </trkpt>
      <trkpt lat="43.72952" lon="1.46595">
        <ele>174</ele>
        <time>2022-06-18T14:59:10Z</time>
      </trkpt>
      <trkpt lat="43.72946" lon="1.46603">
        <ele>174</ele>
        <time>2022-06-18T14:59:12Z</time>
      </trkpt>
      <trkpt lat="43.72941" lon="1.46624">
        <ele>175</ele>
        <time>2022-06-18T14:59:16Z</time>
      </trkpt>
      <trkpt lat="43.7291" lon="1.46662">
        <ele>175</ele>
        <time>2022-06-18T14:59:26Z</time>
      </trkpt>
      <trkpt lat="43.72909" lon="1.4667">
        <ele>175</ele>
        <time>2022-06-18T14:59:27Z</time>
      </trkpt>
      <trkpt lat="43.72922" lon="1.46686">
        <ele>175</ele>
        <time>2022-06-18T14:59:31Z</time>
      </trkpt>
      <trkpt lat="43.72938" lon="1.4672">
        <ele>175</ele>
        <time>2022-06-18T14:59:38Z</time>
      </trkpt>
      <trkpt lat="43.72956" lon="1.46741">
        <ele>174</ele>
        <time>2022-06-18T14:59:43Z</time>
      </trkpt>
      <trkpt lat="43.73008" lon="1.46767">
        <ele>170</ele>
        <time>2022-06-18T14:59:56Z</time>
      </trkpt>
      <trkpt lat="43.73067" lon="1.46827">
        <ele>163</ele>
        <time>2022-06-18T15:00:14Z</time>
      </trkpt>
      <trkpt lat="43.73083" lon="1.46858">
        <ele>160</ele>
        <time>2022-06-18T15:00:20Z</time>
      </trkpt>
      <trkpt lat="43.73076" lon="1.46875">
        <ele>160</ele>
        <time>2022-06-18T15:00:23Z</time>
      </trkpt>
      <trkpt lat="43.73059" lon="1.46876">
        <ele>162</ele>
        <time>2022-06-18T15:00:27Z</time>
      </trkpt>
      <trkpt lat="43.73023" lon="1.46854">
        <ele>166</ele>
        <time>2022-06-18T15:00:36Z</time>
      </trkpt>
      <trkpt lat="43.72987" lon="1.4687">
        <ele>168</ele>
        <time>2022-06-18T15:00:45Z</time>
      </trkpt>
      <trkpt lat="43.72978" lon="1.46869">
        <ele>168</ele>
        <time>2022-06-18T15:00:47Z</time>
      </trkpt>
      <trkpt lat="43.72976" lon="1.4686">
        <ele>169</ele>
        <time>2022-06-18T15:00:49Z</time>
      </trkpt>
      <trkpt lat="43.72982" lon="1.4683">
        <ele>170</ele>
        <time>2022-06-18T15:00:54Z</time>
      </trkpt>
      <trkpt lat="43.72976" lon="1.46815">
        <ele>171</ele>
        <time>2022-06-18T15:00:57Z</time>
      </trkpt>
      <trkpt lat="43.72954" lon="1.46806">
        <ele>172</ele>
        <time>2022-06-18T15:01:02Z</time>
      </trkpt>
      <trkpt lat="43.72937" lon="1.46804">
        <ele>173</ele>
        <time>2022-06-18T15:01:06Z</time>
      </trkpt>
      <trkpt lat="43.72925" lon="1.46795">
        <ele>174</ele>
        <time>2022-06-18T15:01:10Z</time>
      </trkpt>
      <trkpt lat="43.72907" lon="1.46762">
        <ele>176</ele>
        <time>2022-06-18T15:01:17Z</time>
      </trkpt>
      <trkpt lat="43.72887" lon="1.4676">
        <ele>175</ele>
        <time>2022-06-18T15:01:21Z</time>
      </trkpt>
      <trkpt lat="43.72858" lon="1.4677">
        <ele>174</ele>
        <time>2022-06-18T15:01:28Z</time>
      </trkpt>
      <trkpt lat="43.72846" lon="1.46787">
        <ele>173</ele>
        <time>2022-06-18T15:01:32Z</time>
      </trkpt>
      <trkpt lat="43.72825" lon="1.46796">
        <ele>171</ele>
        <time>2022-06-18T15:01:37Z</time>
      </trkpt>
      <trkpt lat="43.72822" lon="1.4681">
        <ele>170</ele>
        <time>2022-06-18T15:01:40Z</time>
      </trkpt>
      <trkpt lat="43.72835" lon="1.46836">
        <ele>170</ele>
        <time>2022-06-18T15:01:45Z</time>
      </trkpt>
      <trkpt lat="43.72846" lon="1.4689">
        <ele>167</ele>
        <time>2022-06-18T15:01:55Z</time>
      </trkpt>
      <trkpt lat="43.72855" lon="1.46911">
        <ele>166</ele>
        <time>2022-06-18T15:01:59Z</time>
      </trkpt>
      <trkpt lat="43.72905" lon="1.46935">
        <ele>168</ele>
        <time>2022-06-18T15:02:11Z</time>
      </trkpt>
      <trkpt lat="43.72942" lon="1.46971">
        <ele>165</ele>
        <time>2022-06-18T15:02:22Z</time>
      </trkpt>
      <trkpt lat="43.72962" lon="1.47003">
        <ele>162</ele>
        <time>2022-06-18T15:02:29Z</time>
      </trkpt>
      <trkpt lat="43.72961" lon="1.47009">
        <ele>161</ele>
        <time>2022-06-18T15:02:30Z</time>
      </trkpt>
      <trkpt lat="43.72931" lon="1.46989">
        <ele>164</ele>
        <time>2022-06-18T15:02:38Z</time>
      </trkpt>
      <trkpt lat="43.72923" lon="1.46988">
        <ele>165</ele>
        <time>2022-06-18T15:02:40Z</time>
      </trkpt>
      <trkpt lat="43.72899" lon="1.4701">
        <ele>161</ele>
        <time>2022-06-18T15:02:46Z</time>
      </trkpt>
      <trkpt lat="43.72888" lon="1.4701">
        <ele>161</ele>
        <time>2022-06-18T15:02:49Z</time>
      </trkpt>
      <trkpt lat="43.72885" lon="1.47017">
        <ele>160</ele>
        <time>2022-06-18T15:02:50Z</time>
      </trkpt>
      <trkpt lat="43.72914" lon="1.47073">
        <ele>156</ele>
        <time>2022-06-18T15:03:02Z</time>
      </trkpt>
      <trkpt lat="43.72928" lon="1.47117">
        <ele>152</ele>
        <time>2022-06-18T15:03:10Z</time>
      </trkpt>
      <trkpt lat="43.72942" lon="1.47142">
        <ele>150</ele>
        <time>2022-06-18T15:03:15Z</time>
      </trkpt>
      <trkpt lat="43.73008" lon="1.47164">
        <ele>150</ele>
        <time>2022-06-18T15:03:31Z</time>
      </trkpt>
      <trkpt lat="43.7302" lon="1.47154">
        <ele>150</ele>
        <time>2022-06-18T15:03:34Z</time>
      </trkpt>
      <trkpt lat="43.73026" lon="1.47115">
        <ele>152</ele>
        <time>2022-06-18T15:03:41Z</time>
      </trkpt>
      <trkpt lat="43.73044" lon="1.47078">
        <ele>153</ele>
        <time>2022-06-18T15:03:49Z</time>
      </trkpt>
      <trkpt lat="43.73042" lon="1.4704">
        <ele>155</ele>
        <time>2022-06-18T15:03:55Z</time>
      </trkpt>
      <trkpt lat="43.73052" lon="1.47017">
        <ele>155</ele>
        <time>2022-06-18T15:04:00Z</time>
      </trkpt>
      <trkpt lat="43.73051" lon="1.46994">
        <ele>156</ele>
        <time>2022-06-18T15:04:04Z</time>
      </trkpt>
      <trkpt lat="43.73069" lon="1.46937">
        <ele>158</ele>
        <time>2022-06-18T15:04:14Z</time>
      </trkpt>
      <trkpt lat="43.73067" lon="1.46892">
        <ele>160</ele>
        <time>2022-06-18T15:04:22Z</time>
      </trkpt>
      <trkpt lat="43.73094" lon="1.4684">
        <ele>160</ele>
        <time>2022-06-18T15:04:32Z</time>
      </trkpt>
      <trkpt lat="43.73119" lon="1.46821">
        <ele>159</ele>
        <time>2022-06-18T15:04:39Z</time>
      </trkpt>
      <trkpt lat="43.73144" lon="1.46781">
        <ele>158</ele>
        <time>2022-06-18T15:04:48Z</time>
      </trkpt>
      <trkpt lat="43.73152" lon="1.467">
        <ele>159</ele>
        <time>2022-06-18T15:05:02Z</time>
      </trkpt>
      <trkpt lat="43.73164" lon="1.46681">
        <ele>158</ele>
        <time>2022-06-18T15:05:06Z</time>
      </trkpt>
      <trkpt lat="43.73192" lon="1.46658">
        <ele>156</ele>
        <time>2022-06-18T15:05:14Z</time>
      </trkpt>
      <trkpt lat="43.73196" lon="1.46629">
        <ele>157</ele>
        <time>2022-06-18T15:05:19Z</time>
      </trkpt>
      <trkpt lat="43.73221" lon="1.46576">
        <ele>156</ele>
        <time>2022-06-18T15:05:29Z</time>
      </trkpt>
      <trkpt lat="43.73236" lon="1.46553">
        <ele>156</ele>
        <time>2022-06-18T15:05:35Z</time>
      </trkpt>
      <trkpt lat="43.73256" lon="1.46499">
        <ele>157</ele>
        <time>2022-06-18T15:05:45Z</time>
      </trkpt>
      <trkpt lat="43.73279" lon="1.46463">
        <ele>154</ele>
        <time>2022-06-18T15:05:53Z</time>
      </trkpt>
      <trkpt lat="43.73288" lon="1.46461">
        <ele>153</ele>
        <time>2022-06-18T15:05:55Z</time>
      </trkpt>
      <trkpt lat="43.73304" lon="1.46468">
        <ele>151</ele>
        <time>2022-06-18T15:05:59Z</time>
      </trkpt>
      <trkpt lat="43.7331" lon="1.46464">
        <ele>150</ele>
        <time>2022-06-18T15:06:00Z</time>
      </trkpt>
      <trkpt lat="43.73313" lon="1.4645">
        <ele>150</ele>
        <time>2022-06-18T15:06:03Z</time>
      </trkpt>
      <trkpt lat="43.73307" lon="1.46427">
        <ele>151</ele>
        <time>2022-06-18T15:06:07Z</time>
      </trkpt>
      <trkpt lat="43.73356" lon="1.46324">
        <ele>149</ele>
        <time>2022-06-18T15:06:28Z</time>
      </trkpt>
      <trkpt lat="43.73365" lon="1.46288">
        <ele>149</ele>
        <time>2022-06-18T15:06:34Z</time>
      </trkpt>
      <trkpt lat="43.73356" lon="1.46273">
        <ele>149</ele>
        <time>2022-06-18T15:06:38Z</time>
      </trkpt>
      <trkpt lat="43.73312" lon="1.46263">
        <ele>150</ele>
        <time>2022-06-18T15:06:48Z</time>
      </trkpt>
      <trkpt lat="43.73293" lon="1.46251">
        <ele>150</ele>
        <time>2022-06-18T15:06:53Z</time>
      </trkpt>
      <trkpt lat="43.73286" lon="1.46242">
        <ele>151</ele>
        <time>2022-06-18T15:06:55Z</time>
      </trkpt>
      <trkpt lat="43.73267" lon="1.46192">
        <ele>150</ele>
        <time>2022-06-18T15:07:05Z</time>
      </trkpt>
      <trkpt lat="43.73252" lon="1.46181">
        <ele>150</ele>
        <time>2022-06-18T15:07:09Z</time>
      </trkpt>
      <trkpt lat="43.73243" lon="1.4619">
        <ele>150</ele>
        <time>2022-06-18T15:07:11Z</time>
      </trkpt>
      <trkpt lat="43.7322" lon="1.46241">
        <ele>153</ele>
        <time>2022-06-18T15:07:21Z</time>
      </trkpt>
      <trkpt lat="43.73212" lon="1.46245">
        <ele>153</ele>
        <time>2022-06-18T15:07:23Z</time>
      </trkpt>
      <trkpt lat="43.73206" lon="1.46242">
        <ele>153</ele>
        <time>2022-06-18T15:07:25Z</time>
      </trkpt>
      <trkpt lat="43.73175" lon="1.46195">
        <ele>152</ele>
        <time>2022-06-18T15:07:36Z</time>
      </trkpt>
      <trkpt lat="43.73157" lon="1.46175">
        <ele>152</ele>
        <time>2022-06-18T15:07:41Z</time>
      </trkpt>
      <trkpt lat="43.73144" lon="1.46148">
        <ele>153</ele>
        <time>2022-06-18T15:07:46Z</time>
      </trkpt>
      <trkpt lat="43.73103" lon="1.46094">
        <ele>155</ele>
        <time>2022-06-18T15:08:00Z</time>
      </trkpt>
      <trkpt lat="43.73097" lon="1.46084">
        <ele>156</ele>
        <time>2022-06-18T15:08:02Z</time>
      </trkpt>
      <trkpt lat="43.73095" lon="1.46057">
        <ele>156</ele>
        <time>2022-06-18T15:08:06Z</time>
      </trkpt>
      <trkpt lat="43.73091" lon="1.46051">
        <ele>157</ele>
        <time>2022-06-18T15:08:08Z</time>
      </trkpt>
      <trkpt lat="43.73078" lon="1.4604">
        <ele>159</ele>
        <time>2022-06-18T15:08:11Z</time>
      </trkpt>
      <trkpt lat="43.73063" lon="1.46035">
        <ele>160</ele>
        <time>2022-06-18T15:08:15Z</time>
      </trkpt>
      <trkpt lat="43.73061" lon="1.4603">
        <ele>161</ele>
        <time>2022-06-18T15:08:16Z</time>
      </trkpt>
      <trkpt lat="43.73081" lon="1.45974">
        <ele>162</ele>
        <time>2022-06-18T15:08:26Z</time>
      </trkpt>
      <trkpt lat="43.73103" lon="1.45942">
        <ele>162</ele>
        <time>2022-06-18T15:08:34Z</time>
      </trkpt>
      <trkpt lat="43.73134" lon="1.45872">
        <ele>162</ele>
        <time>2022-06-18T15:08:48Z</time>
      </trkpt>
      <trkpt lat="43.7313" lon="1.45836">
        <ele>165</ele>
        <time>2022-06-18T15:08:54Z</time>
      </trkpt>
      <trkpt lat="43.73116" lon="1.45815">
        <ele>168</ele>
        <time>2022-06-18T15:08:59Z</time>
      </trkpt>
      <trkpt lat="43.73117" lon="1.45775">
        <ele>170</ele>
        <time>2022-06-18T15:09:06Z</time>
      </trkpt>
      <trkpt lat="43.73104" lon="1.45758">
        <ele>172</ele>
        <time>2022-06-18T15:09:10Z</time>
      </trkpt>
      <trkpt lat="43.73109" lon="1.45732">
        <ele>172</ele>
        <time>2022-06-18T15:09:14Z</time>
      </trkpt>
      <trkpt lat="43.73129" lon="1.457">
        <ele>170</ele>
        <time>2022-06-18T15:09:21Z</time>
      </trkpt>
      <trkpt lat="43.73128" lon="1.45675">
        <ele>171</ele>
        <time>2022-06-18T15:09:26Z</time>
      </trkpt>
      <trkpt lat="43.73132" lon="1.45653">
        <ele>171</ele>
        <time>2022-06-18T15:09:29Z</time>
      </trkpt>
      <trkpt lat="43.73146" lon="1.45617">
        <ele>172</ele>
        <time>2022-06-18T15:09:36Z</time>
      </trkpt>
      <trkpt lat="43.73154" lon="1.45615">
        <ele>171</ele>
        <time>2022-06-18T15:09:38Z</time>
      </trkpt>
      <trkpt lat="43.73166" lon="1.45619">
        <ele>170</ele>
        <time>2022-06-18T15:09:41Z</time>
      </trkpt>
      <trkpt lat="43.7317" lon="1.45616">
        <ele>170</ele>
        <time>2022-06-18T15:09:42Z</time>
      </trkpt>
      <trkpt lat="43.73198" lon="1.45569">
        <ele>168</ele>
        <time>2022-06-18T15:09:52Z</time>
      </trkpt>
      <trkpt lat="43.73163" lon="1.45524">
        <ele>172</ele>
        <time>2022-06-18T15:10:04Z</time>
      </trkpt>
      <trkpt lat="43.73162" lon="1.45487">
        <ele>173</ele>
        <time>2022-06-18T15:10:10Z</time>
      </trkpt>
      <trkpt lat="43.73156" lon="1.45453">
        <ele>173</ele>
        <time>2022-06-18T15:10:16Z</time>
      </trkpt>
      <trkpt lat="43.73149" lon="1.45439">
        <ele>174</ele>
        <time>2022-06-18T15:10:19Z</time>
      </trkpt>
      <trkpt lat="43.73086" lon="1.45367">
        <ele>180</ele>
        <time>2022-06-18T15:10:38Z</time>
      </trkpt>
      <trkpt lat="43.73051" lon="1.454">
        <ele>182</ele>
        <time>2022-06-18T15:10:48Z</time>
      </trkpt>
      <trkpt lat="43.73028" lon="1.45385">
        <ele>183</ele>
        <time>2022-06-18T15:10:54Z</time>
      </trkpt>
      <trkpt lat="43.73016" lon="1.45385">
        <ele>184</ele>
        <time>2022-06-18T15:10:56Z</time>
      </trkpt>
      <trkpt lat="43.73002" lon="1.45391">
        <ele>185</ele>
        <time>2022-06-18T15:11:00Z</time>
      </trkpt>
      <trkpt lat="43.73001" lon="1.45396">
        <ele>185</ele>
        <time>2022-06-18T15:11:01Z</time>
      </trkpt>
      <trkpt lat="43.73024" lon="1.45417">
        <ele>184</ele>
        <time>2022-06-18T15:11:07Z</time>
      </trkpt>
      <trkpt lat="43.73029" lon="1.45429">
        <ele>183</ele>
        <time>2022-06-18T15:11:09Z</time>
      </trkpt>
      <trkpt lat="43.73044" lon="1.45442">
        <ele>182</ele>
        <time>2022-06-18T15:11:14Z</time>
      </trkpt>
      <trkpt lat="43.73054" lon="1.45458">
        <ele>181</ele>
        <time>2022-06-18T15:11:17Z</time>
      </trkpt>
      <trkpt lat="43.73052" lon="1.45502">
        <ele>181</ele>
        <time>2022-06-18T15:11:25Z</time>
      </trkpt>
      <trkpt lat="43.73076" lon="1.45549">
        <ele>180</ele>
        <time>2022-06-18T15:11:34Z</time>
      </trkpt>
      <trkpt lat="43.7309" lon="1.45603">
        <ele>178</ele>
        <time>2022-06-18T15:11:44Z</time>
      </trkpt>
      <trkpt lat="43.73094" lon="1.45722">
        <ele>174</ele>
        <time>2022-06-18T15:12:04Z</time>
      </trkpt>
      <trkpt lat="43.73087" lon="1.45734">
        <ele>175</ele>
        <time>2022-06-18T15:12:07Z</time>
      </trkpt>
      <trkpt lat="43.73071" lon="1.45746">
        <ele>176</ele>
        <time>2022-06-18T15:12:11Z</time>
      </trkpt>
      <trkpt lat="43.73045" lon="1.45744">
        <ele>177</ele>
        <time>2022-06-18T15:12:17Z</time>
      </trkpt>
      <trkpt lat="43.73037" lon="1.45733">
        <ele>178</ele>
        <time>2022-06-18T15:12:20Z</time>
      </trkpt>
      <trkpt lat="43.73054" lon="1.45676">
        <ele>178</ele>
        <time>2022-06-18T15:12:30Z</time>
      </trkpt>
      <trkpt lat="43.73055" lon="1.45643">
        <ele>179</ele>
        <time>2022-06-18T15:12:36Z</time>
      </trkpt>
      <trkpt lat="43.73014" lon="1.4559">
        <ele>183</ele>
        <time>2022-06-18T15:12:49Z</time>
      </trkpt>
      <trkpt lat="43.7301" lon="1.45584">
        <ele>183</ele>
        <time>2022-06-18T15:12:58Z</time>
      </trkpt>
      <trkpt lat="43.72957" lon="1.45545">
        <ele>183</ele>
        <time>2022-06-18T15:13:12Z</time>
      </trkpt>
      <trkpt lat="43.72959" lon="1.45527">
        <ele>183</ele>
        <time>2022-06-18T15:13:15Z</time>
      </trkpt>
      <trkpt lat="43.72974" lon="1.45481">
        <ele>184</ele>
        <time>2022-06-18T15:13:24Z</time>
      </trkpt>
      <trkpt lat="43.72973" lon="1.45469">
        <ele>184</ele>
        <time>2022-06-18T15:13:26Z</time>
      </trkpt>
      <trkpt lat="43.72965" lon="1.45462">
        <ele>184</ele>
        <time>2022-06-18T15:13:28Z</time>
      </trkpt>
      <trkpt lat="43.72933" lon="1.4545">
        <ele>183</ele>
        <time>2022-06-18T15:13:36Z</time>
      </trkpt>
      <trkpt lat="43.72931" lon="1.45444">
        <ele>183</ele>
        <time>2022-06-18T15:13:37Z</time>
      </trkpt>
      <trkpt lat="43.72937" lon="1.4543">
        <ele>183</ele>
        <time>2022-06-18T15:13:39Z</time>
      </trkpt>
      <trkpt lat="43.72936" lon="1.45417">
        <ele>183</ele>
        <time>2022-06-18T15:13:42Z</time>
      </trkpt>
      <trkpt lat="43.72919" lon="1.45397">
        <ele>184</ele>
        <time>2022-06-18T15:13:47Z</time>
      </trkpt>
      <trkpt lat="43.72897" lon="1.45394">
        <ele>184</ele>
        <time>2022-06-18T15:13:52Z</time>
      </trkpt>
      <trkpt lat="43.72876" lon="1.45384">
        <ele>184</ele>
        <time>2022-06-18T15:13:57Z</time>
      </trkpt>
      <trkpt lat="43.72843" lon="1.45384">
        <ele>183</ele>
        <time>2022-06-18T15:14:05Z</time>
      </trkpt>
      <trkpt lat="43.72804" lon="1.45363">
        <ele>183</ele>
        <time>2022-06-18T15:14:15Z</time>
      </trkpt>
      <trkpt lat="43.72797" lon="1.45347">
        <ele>183</ele>
        <time>2022-06-18T15:14:18Z</time>
      </trkpt>
      <trkpt lat="43.72798" lon="1.45321">
        <ele>183</ele>
        <time>2022-06-18T15:14:22Z</time>
      </trkpt>
      <trkpt lat="43.72785" lon="1.45254">
        <ele>183</ele>
        <time>2022-06-18T15:14:34Z</time>
      </trkpt>
      <trkpt lat="43.72777" lon="1.45237">
        <ele>183</ele>
        <time>2022-06-18T15:14:37Z</time>
      </trkpt>
      <trkpt lat="43.72778" lon="1.45228">
        <ele>183</ele>
        <time>2022-06-18T15:14:39Z</time>
      </trkpt>
      <trkpt lat="43.72796" lon="1.45184">
        <ele>184</ele>
        <time>2022-06-18T15:14:47Z</time>
      </trkpt>
      <trkpt lat="43.72812" lon="1.45125">
        <ele>184</ele>
        <time>2022-06-18T15:14:58Z</time>
      </trkpt>
      <trkpt lat="43.72827" lon="1.45098">
        <ele>185</ele>
        <time>2022-06-18T15:15:04Z</time>
      </trkpt>
      <trkpt lat="43.72847" lon="1.45081">
        <ele>185</ele>
        <time>2022-06-18T15:15:09Z</time>
      </trkpt>
      <trkpt lat="43.72849" lon="1.45044">
        <ele>183</ele>
        <time>2022-06-18T15:15:16Z</time>
      </trkpt>
      <trkpt lat="43.72862" lon="1.45018">
        <ele>182</ele>
        <time>2022-06-18T15:15:21Z</time>
      </trkpt>
      <trkpt lat="43.72879" lon="1.44967">
        <ele>183</ele>
        <time>2022-06-18T15:15:30Z</time>
      </trkpt>
      <trkpt lat="43.72895" lon="1.44904">
        <ele>184</ele>
        <time>2022-06-18T15:15:42Z</time>
      </trkpt>
      <trkpt lat="43.72868" lon="1.44903">
        <ele>183</ele>
        <time>2022-06-18T15:16:07Z</time>
      </trkpt>
      <trkpt lat="43.72862" lon="1.44888">
        <ele>183</ele>
        <time>2022-06-18T15:16:10Z</time>
      </trkpt>
      <trkpt lat="43.72859" lon="1.44863">
        <ele>183</ele>
        <time>2022-06-18T15:16:14Z</time>
      </trkpt>
      <trkpt lat="43.72847" lon="1.44835">
        <ele>182</ele>
        <time>2022-06-18T15:16:20Z</time>
      </trkpt>
      <trkpt lat="43.72834" lon="1.44822">
        <ele>181</ele>
        <time>2022-06-18T15:16:24Z</time>
      </trkpt>
      <trkpt lat="43.72823" lon="1.44822">
        <ele>180</ele>
        <time>2022-06-18T15:16:26Z</time>
      </trkpt>
      <trkpt lat="43.72817" lon="1.44818">
        <ele>179</ele>
        <time>2022-06-18T15:16:28Z</time>
      </trkpt>
      <trkpt lat="43.7281" lon="1.44807">
        <ele>178</ele>
        <time>2022-06-18T15:16:30Z</time>
      </trkpt>
      <trkpt lat="43.72809" lon="1.44759">
        <ele>174</ele>
        <time>2022-06-18T15:16:38Z</time>
      </trkpt>
      <trkpt lat="43.72815" lon="1.44731">
        <ele>174</ele>
        <time>2022-06-18T15:16:43Z</time>
      </trkpt>
      <trkpt lat="43.72823" lon="1.44719">
        <ele>174</ele>
        <time>2022-06-18T15:16:46Z</time>
      </trkpt>
      <trkpt lat="43.72861" lon="1.44689">
        <ele>175</ele>
        <time>2022-06-18T15:16:56Z</time>
      </trkpt>
      <trkpt lat="43.7287" lon="1.44685">
        <ele>175</ele>
        <time>2022-06-18T15:16:58Z</time>
      </trkpt>
      <trkpt lat="43.72876" lon="1.4469">
        <ele>176</ele>
        <time>2022-06-18T15:17:00Z</time>
      </trkpt>
      <trkpt lat="43.72914" lon="1.44777">
        <ele>181</ele>
        <time>2022-06-18T15:17:17Z</time>
      </trkpt>
      <trkpt lat="43.72915" lon="1.44829">
        <ele>185</ele>
        <time>2022-06-18T15:17:26Z</time>
      </trkpt>
      <trkpt lat="43.72928" lon="1.44877">
        <ele>184</ele>
        <time>2022-06-18T15:17:35Z</time>
      </trkpt>
      <trkpt lat="43.72923" lon="1.4496">
        <ele>184</ele>
        <time>2022-06-18T15:17:49Z</time>
      </trkpt>
      <trkpt lat="43.72911" lon="1.44989">
        <ele>183</ele>
        <time>2022-06-18T15:17:54Z</time>
      </trkpt>
      <trkpt lat="43.72912" lon="1.45043">
        <ele>183</ele>
        <time>2022-06-18T15:18:03Z</time>
      </trkpt>
      <trkpt lat="43.72902" lon="1.4507">
        <ele>184</ele>
        <time>2022-06-18T15:18:09Z</time>
      </trkpt>
      <trkpt lat="43.72899" lon="1.45105">
        <ele>184</ele>
        <time>2022-06-18T15:18:14Z</time>
      </trkpt>
      <trkpt lat="43.72905" lon="1.45173">
        <ele>183</ele>
        <time>2022-06-18T15:18:26Z</time>
      </trkpt>
      <trkpt lat="43.72903" lon="1.45205">
        <ele>184</ele>
        <time>2022-06-18T15:18:31Z</time>
      </trkpt>
      <trkpt lat="43.72912" lon="1.45239">
        <ele>184</ele>
        <time>2022-06-18T15:18:38Z</time>
      </trkpt>
      <trkpt lat="43.72936" lon="1.45242">
        <ele>183</ele>
        <time>2022-06-18T15:18:43Z</time>
      </trkpt>
      <trkpt lat="43.72989" lon="1.45229">
        <ele>182</ele>
        <time>2022-06-18T15:18:56Z</time>
      </trkpt>
      <trkpt lat="43.73064" lon="1.45238">
        <ele>178</ele>
        <time>2022-06-18T15:19:13Z</time>
      </trkpt>
      <trkpt lat="43.73095" lon="1.45251">
        <ele>176</ele>
        <time>2022-06-18T15:19:21Z</time>
      </trkpt>
      <trkpt lat="43.73123" lon="1.45278">
        <ele>175</ele>
        <time>2022-06-18T15:19:29Z</time>
      </trkpt>
      <trkpt lat="43.73133" lon="1.45282">
        <ele>175</ele>
        <time>2022-06-18T15:19:31Z</time>
      </trkpt>
      <trkpt lat="43.73161" lon="1.45273">
        <ele>173</ele>
        <time>2022-06-18T15:19:38Z</time>
      </trkpt>
      <trkpt lat="43.73193" lon="1.45269">
        <ele>170</ele>
        <time>2022-06-18T15:19:46Z</time>
      </trkpt>
      <trkpt lat="43.73253" lon="1.45241">
        <ele>165</ele>
        <time>2022-06-18T15:20:00Z</time>
      </trkpt>
      <trkpt lat="43.73313" lon="1.4525">
        <ele>157</ele>
        <time>2022-06-18T15:20:14Z</time>
      </trkpt>
      <trkpt lat="43.73346" lon="1.45249">
        <ele>155</ele>
        <time>2022-06-18T15:20:22Z</time>
      </trkpt>
      <trkpt lat="43.73487" lon="1.45239">
        <ele>151</ele>
        <time>2022-06-18T15:20:55Z</time>
      </trkpt>
      <trkpt lat="43.73639" lon="1.45222">
        <ele>147</ele>
        <time>2022-06-18T15:21:31Z</time>
      </trkpt>
      <trkpt lat="43.73664" lon="1.45224">
        <ele>146</ele>
        <time>2022-06-18T15:21:37Z</time>
      </trkpt>
      <trkpt lat="43.7368" lon="1.4524">
        <ele>146</ele>
        <time>2022-06-18T15:21:41Z</time>
      </trkpt>
      <trkpt lat="43.73691" lon="1.45289">
        <ele>145</ele>
        <time>2022-06-18T15:21:50Z</time>
      </trkpt>
      <trkpt lat="43.73705" lon="1.45301">
        <ele>145</ele>
        <time>2022-06-18T15:21:54Z</time>
      </trkpt>
      <trkpt lat="43.73747" lon="1.4532">
        <ele>144</ele>
        <time>2022-06-18T15:22:04Z</time>
      </trkpt>
      <trkpt lat="43.73819" lon="1.4534">
        <ele>142</ele>
        <time>2022-06-18T15:22:21Z</time>
      </trkpt>
      <trkpt lat="43.73846" lon="1.45339">
        <ele>142</ele>
        <time>2022-06-18T15:22:27Z</time>
      </trkpt>
      <trkpt lat="43.73916" lon="1.4532">
        <ele>140</ele>
        <time>2022-06-18T15:22:44Z</time>
      </trkpt>
      <trkpt lat="43.7394" lon="1.45324">
        <ele>140</ele>
        <time>2022-06-18T15:22:50Z</time>
      </trkpt>
      <trkpt lat="43.73991" lon="1.45354">
        <ele>139</ele>
        <time>2022-06-18T15:23:03Z</time>
      </trkpt>
      <trkpt lat="43.74082" lon="1.45419">
        <ele>138</ele>
        <time>2022-06-18T15:23:27Z</time>
      </trkpt>
      <trkpt lat="43.74137" lon="1.45467">
        <ele>138</ele>
        <time>2022-06-18T15:23:42Z</time>
      </trkpt>
      <trkpt lat="43.74275" lon="1.45575">
        <ele>137</ele>
        <time>2022-06-18T15:24:19Z</time>
      </trkpt>
      <trkpt lat="43.74346" lon="1.45637">
        <ele>131</ele>
        <time>2022-06-18T15:24:38Z</time>
      </trkpt>
      <trkpt lat="43.74386" lon="1.45658">
        <ele>132</ele>
        <time>2022-06-18T15:24:48Z</time>
      </trkpt>
      <trkpt lat="43.74505" lon="1.45699">
        <ele>131</ele>
        <time>2022-06-18T15:25:17Z</time>
      </trkpt>
      <trkpt lat="43.74529" lon="1.45698">
        <ele>130</ele>
        <time>2022-06-18T15:25:23Z</time>
      </trkpt>
      <trkpt lat="43.74537" lon="1.45688">
        <ele>129</ele>
        <time>2022-06-18T15:25:25Z</time>
      </trkpt>
      <trkpt lat="43.74559" lon="1.45581">
        <ele>128</ele>
        <time>2022-06-18T15:25:44Z</time>
      </trkpt>
      <trkpt lat="43.74577" lon="1.4545">
        <ele>129</ele>
        <time>2022-06-18T15:26:06Z</time>
      </trkpt>
      <trkpt lat="43.7458" lon="1.45398">
        <ele>129</ele>
        <time>2022-06-18T15:26:15Z</time>
      </trkpt>
      <trkpt lat="43.74647" lon="1.45246">
        <ele>128</ele>
        <time>2022-06-18T15:26:45Z</time>
      </trkpt>
      <trkpt lat="43.74662" lon="1.45132">
        <ele>127</ele>
        <time>2022-06-18T15:27:05Z</time>
      </trkpt>
      <trkpt lat="43.74662" lon="1.45105">
        <ele>127</ele>
        <time>2022-06-18T15:27:09Z</time>
      </trkpt>
      <trkpt lat="43.74642" lon="1.45047">
        <ele>126</ele>
        <time>2022-06-18T15:27:20Z</time>
      </trkpt>
      <trkpt lat="43.7464" lon="1.45029">
        <ele>125</ele>
        <time>2022-06-18T15:27:23Z</time>
      </trkpt>
      <trkpt lat="43.74647" lon="1.44815">
        <ele>125</ele>
        <time>2022-06-18T15:27:59Z</time>
      </trkpt>
      <trkpt lat="43.74643" lon="1.44714">
        <ele>126</ele>
        <time>2022-06-18T15:28:16Z</time>
      </trkpt>
      <trkpt lat="43.74646" lon="1.44657">
        <ele>126</ele>
        <time>2022-06-18T15:28:26Z</time>
      </trkpt>
      <trkpt lat="43.74669" lon="1.4448">
        <ele>127</ele>
        <time>2022-06-18T15:28:56Z</time>
      </trkpt>
      <trkpt lat="43.7467" lon="1.4439">
        <ele>128</ele>
        <time>2022-06-18T15:29:12Z</time>
      </trkpt>
      <trkpt lat="43.74677" lon="1.44341">
        <ele>128</ele>
        <time>2022-06-18T15:29:20Z</time>
      </trkpt>
      <trkpt lat="43.74806" lon="1.4404">
        <ele>125</ele>
        <time>2022-06-18T15:30:19Z</time>
      </trkpt>
      <trkpt lat="43.75032" lon="1.43595">
        <ele>124</ele>
        <time>2022-06-18T15:31:51Z</time>
      </trkpt>
      <trkpt lat="43.7513" lon="1.43326">
        <ele>127</ele>
        <time>2022-06-18T15:32:42Z</time>
      </trkpt>
      <trkpt lat="43.75191" lon="1.43191">
        <ele>127</ele>
        <time>2022-06-18T15:33:09Z</time>
      </trkpt>
      <trkpt lat="43.752" lon="1.43164">
        <ele>127</ele>
        <time>2022-06-18T15:33:14Z</time>
      </trkpt>
      <trkpt lat="43.75199" lon="1.43152">
        <ele>127</ele>
        <time>2022-06-18T15:33:16Z</time>
      </trkpt>
      <trkpt lat="43.7519" lon="1.4314">
        <ele>127</ele>
        <time>2022-06-18T15:33:19Z</time>
      </trkpt>
      <trkpt lat="43.75148" lon="1.43124">
        <ele>127</ele>
        <time>2022-06-18T15:33:29Z</time>
      </trkpt>
      <trkpt lat="43.751" lon="1.43098">
        <ele>128</ele>
        <time>2022-06-18T15:33:41Z</time>
      </trkpt>
      <trkpt lat="43.75045" lon="1.43025">
        <ele>128</ele>
        <time>2022-06-18T15:33:59Z</time>
      </trkpt>
      <trkpt lat="43.74961" lon="1.42972">
        <ele>130</ele>
        <time>2022-06-18T15:34:20Z</time>
      </trkpt>
      <trkpt lat="43.74954" lon="1.4295">
        <ele>130</ele>
        <time>2022-06-18T15:34:24Z</time>
      </trkpt>
      <trkpt lat="43.74949" lon="1.4291">
        <ele>130</ele>
        <time>2022-06-18T15:34:31Z</time>
      </trkpt>
      <trkpt lat="43.74949" lon="1.42872">
        <ele>130</ele>
        <time>2022-06-18T15:34:37Z</time>
      </trkpt>
      <trkpt lat="43.74941" lon="1.42862">
        <ele>130</ele>
        <time>2022-06-18T15:34:40Z</time>
      </trkpt>
      <trkpt lat="43.74845" lon="1.42875">
        <ele>131</ele>
        <time>2022-06-18T15:35:02Z</time>
      </trkpt>
      <trkpt lat="43.74786" lon="1.42865">
        <ele>132</ele>
        <time>2022-06-18T15:35:16Z</time>
      </trkpt>
      <trkpt lat="43.74736" lon="1.42838">
        <ele>132</ele>
        <time>2022-06-18T15:35:29Z</time>
      </trkpt>
      <trkpt lat="43.74571" lon="1.42731">
        <ele>137</ele>
        <time>2022-06-18T15:36:11Z</time>
      </trkpt>
      <trkpt lat="43.74567" lon="1.42712">
        <ele>137</ele>
        <time>2022-06-18T15:36:15Z</time>
      </trkpt>
      <trkpt lat="43.74576" lon="1.42583">
        <ele>136</ele>
        <time>2022-06-18T15:36:37Z</time>
      </trkpt>
      <trkpt lat="43.74595" lon="1.42428">
        <ele>140</ele>
        <time>2022-06-18T15:37:03Z</time>
      </trkpt>
      <trkpt lat="43.74592" lon="1.42413">
        <ele>140</ele>
        <time>2022-06-18T15:37:06Z</time>
      </trkpt>
      <trkpt lat="43.74572" lon="1.42374">
        <ele>140</ele>
        <time>2022-06-18T15:37:14Z</time>
      </trkpt>
      <trkpt lat="43.74577" lon="1.42327">
        <ele>140</ele>
        <time>2022-06-18T15:37:22Z</time>
      </trkpt>
      <trkpt lat="43.74565" lon="1.42282">
        <ele>140</ele>
        <time>2022-06-18T15:37:30Z</time>
      </trkpt>
      <trkpt lat="43.74572" lon="1.42252">
        <ele>139</ele>
        <time>2022-06-18T15:37:35Z</time>
      </trkpt>
      <trkpt lat="43.74593" lon="1.422">
        <ele>139</ele>
        <time>2022-06-18T15:37:45Z</time>
      </trkpt>
      <trkpt lat="43.74593" lon="1.42185">
        <ele>140</ele>
        <time>2022-06-18T15:37:48Z</time>
      </trkpt>
      <trkpt lat="43.74574" lon="1.42103">
        <ele>141</ele>
        <time>2022-06-18T15:38:02Z</time>
      </trkpt>
      <trkpt lat="43.74566" lon="1.42093">
        <ele>142</ele>
        <time>2022-06-18T15:38:05Z</time>
      </trkpt>
      <trkpt lat="43.7455" lon="1.42086">
        <ele>143</ele>
        <time>2022-06-18T15:38:09Z</time>
      </trkpt>
      <trkpt lat="43.74482" lon="1.42029">
        <ele>148</ele>
        <time>2022-06-18T15:38:27Z</time>
      </trkpt>
      <trkpt lat="43.74463" lon="1.42018">
        <ele>149</ele>
        <time>2022-06-18T15:38:32Z</time>
      </trkpt>
      <trkpt lat="43.74418" lon="1.42002">
        <ele>150</ele>
        <time>2022-06-18T15:38:43Z</time>
      </trkpt>
      <trkpt lat="43.74397" lon="1.42001">
        <ele>151</ele>
        <time>2022-06-18T15:38:48Z</time>
      </trkpt>
      <trkpt lat="43.74353" lon="1.42018">
        <ele>153</ele>
        <time>2022-06-18T15:38:59Z</time>
      </trkpt>
      <trkpt lat="43.74338" lon="1.4202">
        <ele>153</ele>
        <time>2022-06-18T15:39:02Z</time>
      </trkpt>
      <trkpt lat="43.74317" lon="1.42012">
        <ele>155</ele>
        <time>2022-06-18T15:39:07Z</time>
      </trkpt>
      <trkpt lat="43.74293" lon="1.41995">
        <ele>156</ele>
        <time>2022-06-18T15:39:14Z</time>
      </trkpt>
      <trkpt lat="43.74252" lon="1.41996">
        <ele>158</ele>
        <time>2022-06-18T15:39:23Z</time>
      </trkpt>
      <trkpt lat="43.74232" lon="1.41986">
        <ele>159</ele>
        <time>2022-06-18T15:39:28Z</time>
      </trkpt>
      <trkpt lat="43.74204" lon="1.4198">
        <ele>161</ele>
        <time>2022-06-18T15:39:35Z</time>
      </trkpt>
      <trkpt lat="43.74186" lon="1.41991">
        <ele>164</ele>
        <time>2022-06-18T15:39:39Z</time>
      </trkpt>
      <trkpt lat="43.74169" lon="1.42012">
        <ele>167</ele>
        <time>2022-06-18T15:39:45Z</time>
      </trkpt>
      <trkpt lat="43.74132" lon="1.42026">
        <ele>168</ele>
        <time>2022-06-18T15:39:54Z</time>
      </trkpt>
      <trkpt lat="43.741" lon="1.42033">
        <ele>169</ele>
        <time>2022-06-18T15:40:01Z</time>
      </trkpt>
      <trkpt lat="43.74076" lon="1.42059">
        <ele>170</ele>
        <time>2022-06-18T15:40:08Z</time>
      </trkpt>
      <trkpt lat="43.74007" lon="1.42075">
        <ele>173</ele>
        <time>2022-06-18T15:40:25Z</time>
      </trkpt>
      <trkpt lat="43.73969" lon="1.42093">
        <ele>173</ele>
        <time>2022-06-18T15:40:34Z</time>
      </trkpt>
      <trkpt lat="43.73948" lon="1.42112">
        <ele>173</ele>
        <time>2022-06-18T15:40:40Z</time>
      </trkpt>
      <trkpt lat="43.7395" lon="1.42121">
        <ele>173</ele>
        <time>2022-06-18T15:40:41Z</time>
      </trkpt>
      <trkpt lat="43.73993" lon="1.4216">
        <ele>173</ele>
        <time>2022-06-18T15:40:53Z</time>
      </trkpt>
      <trkpt lat="43.7401" lon="1.4219">
        <ele>172</ele>
        <time>2022-06-18T15:41:00Z</time>
      </trkpt>
      <trkpt lat="43.74019" lon="1.42196">
        <ele>171</ele>
        <time>2022-06-18T15:41:02Z</time>
      </trkpt>
      <trkpt lat="43.74034" lon="1.42198">
        <ele>170</ele>
        <time>2022-06-18T15:41:06Z</time>
      </trkpt>
      <trkpt lat="43.74051" lon="1.42223">
        <ele>169</ele>
        <time>2022-06-18T15:41:11Z</time>
      </trkpt>
      <trkpt lat="43.74047" lon="1.42262">
        <ele>167</ele>
        <time>2022-06-18T15:41:18Z</time>
      </trkpt>
      <trkpt lat="43.74036" lon="1.42307">
        <ele>165</ele>
        <time>2022-06-18T15:41:26Z</time>
      </trkpt>
      <trkpt lat="43.74013" lon="1.42326">
        <ele>165</ele>
        <time>2022-06-18T15:41:32Z</time>
      </trkpt>
      <trkpt lat="43.73963" lon="1.42334">
        <ele>168</ele>
        <time>2022-06-18T15:41:44Z</time>
      </trkpt>
      <trkpt lat="43.73919" lon="1.42389">
        <ele>168</ele>
        <time>2022-06-18T15:41:58Z</time>
      </trkpt>
      <trkpt lat="43.73894" lon="1.424">
        <ele>170</ele>
        <time>2022-06-18T15:42:04Z</time>
      </trkpt>
      <trkpt lat="43.73883" lon="1.42396">
        <ele>171</ele>
        <time>2022-06-18T15:42:07Z</time>
      </trkpt>
      <trkpt lat="43.73858" lon="1.42373">
        <ele>174</ele>
        <time>2022-06-18T15:42:14Z</time>
      </trkpt>
      <trkpt lat="43.73829" lon="1.42382">
        <ele>176</ele>
        <time>2022-06-18T15:42:21Z</time>
      </trkpt>
      <trkpt lat="43.73814" lon="1.4237">
        <ele>177</ele>
        <time>2022-06-18T15:42:25Z</time>
      </trkpt>
      <trkpt lat="43.73807" lon="1.42371">
        <ele>177</ele>
        <time>2022-06-18T15:42:26Z</time>
      </trkpt>
      <trkpt lat="43.73792" lon="1.42384">
        <ele>177</ele>
        <time>2022-06-18T15:42:31Z</time>
      </trkpt>
      <trkpt lat="43.7379" lon="1.42394">
        <ele>177</ele>
        <time>2022-06-18T15:42:32Z</time>
      </trkpt>
      <trkpt lat="43.73795" lon="1.42404">
        <ele>177</ele>
        <time>2022-06-18T15:42:34Z</time>
      </trkpt>
      <trkpt lat="43.73813" lon="1.4242">
        <ele>176</ele>
        <time>2022-06-18T15:42:39Z</time>
      </trkpt>
      <trkpt lat="43.7381" lon="1.42442">
        <ele>175</ele>
        <time>2022-06-18T15:42:43Z</time>
      </trkpt>
      <trkpt lat="43.73803" lon="1.42443">
        <ele>175</ele>
        <time>2022-06-18T15:42:45Z</time>
      </trkpt>
      <trkpt lat="43.73791" lon="1.42436">
        <ele>176</ele>
        <time>2022-06-18T15:42:48Z</time>
      </trkpt>
      <trkpt lat="43.73772" lon="1.42418">
        <ele>178</ele>
        <time>2022-06-18T15:42:53Z</time>
      </trkpt>
      <trkpt lat="43.73758" lon="1.42396">
        <ele>179</ele>
        <time>2022-06-18T15:42:58Z</time>
      </trkpt>
      <trkpt lat="43.73748" lon="1.42391">
        <ele>179</ele>
        <time>2022-06-18T15:43:01Z</time>
      </trkpt>
      <trkpt lat="43.7371" lon="1.42398">
        <ele>178</ele>
        <time>2022-06-18T15:43:10Z</time>
      </trkpt>
      <trkpt lat="43.73699" lon="1.42404">
        <ele>178</ele>
        <time>2022-06-18T15:43:12Z</time>
      </trkpt>
      <trkpt lat="43.73674" lon="1.42424">
        <ele>178</ele>
        <time>2022-06-18T15:43:19Z</time>
      </trkpt>
      <trkpt lat="43.73657" lon="1.42453">
        <ele>178</ele>
        <time>2022-06-18T15:43:25Z</time>
      </trkpt>
      <trkpt lat="43.73645" lon="1.42459">
        <ele>178</ele>
        <time>2022-06-18T15:43:28Z</time>
      </trkpt>
      <trkpt lat="43.7361" lon="1.42404">
        <ele>176</ele>
        <time>2022-06-18T15:43:41Z</time>
      </trkpt>
      <trkpt lat="43.73607" lon="1.42376">
        <ele>174</ele>
        <time>2022-06-18T15:43:46Z</time>
      </trkpt>
      <trkpt lat="43.73653" lon="1.42303">
        <ele>176</ele>
        <time>2022-06-18T15:44:02Z</time>
      </trkpt>
      <trkpt lat="43.73639" lon="1.42263">
        <ele>174</ele>
        <time>2022-06-18T15:44:09Z</time>
      </trkpt>
      <trkpt lat="43.73641" lon="1.42249">
        <ele>174</ele>
        <time>2022-06-18T15:44:12Z</time>
      </trkpt>
      <trkpt lat="43.73696" lon="1.42182">
        <ele>174</ele>
        <time>2022-06-18T15:44:29Z</time>
      </trkpt>
      <trkpt lat="43.7373" lon="1.42148">
        <ele>173</ele>
        <time>2022-06-18T15:44:39Z</time>
      </trkpt>
      <trkpt lat="43.73739" lon="1.42148">
        <ele>174</ele>
        <time>2022-06-18T15:44:41Z</time>
      </trkpt>
      <trkpt lat="43.73774" lon="1.42179">
        <ele>176</ele>
        <time>2022-06-18T15:44:50Z</time>
      </trkpt>
      <trkpt lat="43.73792" lon="1.42178">
        <ele>176</ele>
        <time>2022-06-18T15:44:55Z</time>
      </trkpt>
      <trkpt lat="43.73847" lon="1.42159">
        <ele>174</ele>
        <time>2022-06-18T15:45:08Z</time>
      </trkpt>
      <trkpt lat="43.7392" lon="1.42111">
        <ele>172</ele>
        <time>2022-06-18T15:45:27Z</time>
      </trkpt>
      <trkpt lat="43.73949" lon="1.42107">
        <ele>173</ele>
        <time>2022-06-18T15:45:34Z</time>
      </trkpt>
      <trkpt lat="43.73964" lon="1.42094">
        <ele>173</ele>
        <time>2022-06-18T15:45:38Z</time>
      </trkpt>
      <trkpt lat="43.74005" lon="1.42072">
        <ele>173</ele>
        <time>2022-06-18T15:45:48Z</time>
      </trkpt>
      <trkpt lat="43.74075" lon="1.42055">
        <ele>170</ele>
        <time>2022-06-18T15:46:05Z</time>
      </trkpt>
      <trkpt lat="43.7409" lon="1.42039">
        <ele>170</ele>
        <time>2022-06-18T15:46:09Z</time>
      </trkpt>
      <trkpt lat="43.74106" lon="1.42029">
        <ele>169</ele>
        <time>2022-06-18T15:46:13Z</time>
      </trkpt>
      <trkpt lat="43.74108" lon="1.42015">
        <ele>169</ele>
        <time>2022-06-18T15:46:16Z</time>
      </trkpt>
      <trkpt lat="43.74086" lon="1.41992">
        <ele>169</ele>
        <time>2022-06-18T15:46:22Z</time>
      </trkpt>
      <trkpt lat="43.74065" lon="1.41952">
        <ele>164</ele>
        <time>2022-06-18T15:46:30Z</time>
      </trkpt>
      <trkpt lat="43.74049" lon="1.41907">
        <ele>159</ele>
        <time>2022-06-18T15:46:39Z</time>
      </trkpt>
      <trkpt lat="43.74017" lon="1.41869">
        <ele>157</ele>
        <time>2022-06-18T15:46:49Z</time>
      </trkpt>
      <trkpt lat="43.74015" lon="1.41859">
        <ele>157</ele>
        <time>2022-06-18T15:46:50Z</time>
      </trkpt>
      <trkpt lat="43.74029" lon="1.41848">
        <ele>156</ele>
        <time>2022-06-18T15:46:54Z</time>
      </trkpt>
      <trkpt lat="43.74066" lon="1.41841">
        <ele>155</ele>
        <time>2022-06-18T15:47:03Z</time>
      </trkpt>
      <trkpt lat="43.74082" lon="1.41829">
        <ele>154</ele>
        <time>2022-06-18T15:47:07Z</time>
      </trkpt>
      <trkpt lat="43.74145" lon="1.41821">
        <ele>154</ele>
        <time>2022-06-18T15:47:22Z</time>
      </trkpt>
      <trkpt lat="43.74186" lon="1.41803">
        <ele>154</ele>
        <time>2022-06-18T15:47:32Z</time>
      </trkpt>
      <trkpt lat="43.74193" lon="1.41809">
        <ele>154</ele>
        <time>2022-06-18T15:47:34Z</time>
      </trkpt>
      <trkpt lat="43.74207" lon="1.41805">
        <ele>153</ele>
        <time>2022-06-18T15:47:37Z</time>
      </trkpt>
      <trkpt lat="43.74228" lon="1.41821">
        <ele>152</ele>
        <time>2022-06-18T15:47:43Z</time>
      </trkpt>
      <trkpt lat="43.74254" lon="1.41823">
        <ele>151</ele>
        <time>2022-06-18T15:47:49Z</time>
      </trkpt>
      <trkpt lat="43.74278" lon="1.41836">
        <ele>149</ele>
        <time>2022-06-18T15:47:55Z</time>
      </trkpt>
      <trkpt lat="43.74295" lon="1.4184">
        <ele>149</ele>
        <time>2022-06-18T15:47:59Z</time>
      </trkpt>
      <trkpt lat="43.74386" lon="1.41906">
        <ele>147</ele>
        <time>2022-06-18T15:48:23Z</time>
      </trkpt>
      <trkpt lat="43.74416" lon="1.41918">
        <ele>146</ele>
        <time>2022-06-18T15:48:30Z</time>
      </trkpt>
      <trkpt lat="43.7444" lon="1.41939">
        <ele>147</ele>
        <time>2022-06-18T15:48:37Z</time>
      </trkpt>
      <trkpt lat="43.74451" lon="1.4194">
        <ele>146</ele>
        <time>2022-06-18T15:48:44Z</time>
      </trkpt>
      <trkpt lat="43.74467" lon="1.41927">
        <ele>145</ele>
        <time>2022-06-18T15:48:49Z</time>
      </trkpt>
      <trkpt lat="43.74471" lon="1.41916">
        <ele>145</ele>
        <time>2022-06-18T15:48:51Z</time>
      </trkpt>
      <trkpt lat="43.74469" lon="1.41906">
        <ele>144</ele>
        <time>2022-06-18T15:48:53Z</time>
      </trkpt>
      <trkpt lat="43.74448" lon="1.4189">
        <ele>144</ele>
        <time>2022-06-18T15:48:58Z</time>
      </trkpt>
      <trkpt lat="43.7443" lon="1.41889">
        <ele>145</ele>
        <time>2022-06-18T15:49:02Z</time>
      </trkpt>
      <trkpt lat="43.7442" lon="1.41883">
        <ele>145</ele>
        <time>2022-06-18T15:49:05Z</time>
      </trkpt>
      <trkpt lat="43.74389" lon="1.41877">
        <ele>146</ele>
        <time>2022-06-18T15:49:12Z</time>
      </trkpt>
      <trkpt lat="43.74311" lon="1.41829">
        <ele>147</ele>
        <time>2022-06-18T15:49:32Z</time>
      </trkpt>
      <trkpt lat="43.74243" lon="1.41794">
        <ele>152</ele>
        <time>2022-06-18T15:49:49Z</time>
      </trkpt>
      <trkpt lat="43.7423" lon="1.41776">
        <ele>153</ele>
        <time>2022-06-18T15:49:53Z</time>
      </trkpt>
      <trkpt lat="43.74229" lon="1.41752">
        <ele>153</ele>
        <time>2022-06-18T15:49:57Z</time>
      </trkpt>
      <trkpt lat="43.74199" lon="1.41741">
        <ele>155</ele>
        <time>2022-06-18T15:50:05Z</time>
      </trkpt>
      <trkpt lat="43.74139" lon="1.41743">
        <ele>157</ele>
        <time>2022-06-18T15:50:19Z</time>
      </trkpt>
      <trkpt lat="43.74038" lon="1.41735">
        <ele>161</ele>
        <time>2022-06-18T15:50:42Z</time>
      </trkpt>
      <trkpt lat="43.73974" lon="1.41743">
        <ele>163</ele>
        <time>2022-06-18T15:50:57Z</time>
      </trkpt>
      <trkpt lat="43.73908" lon="1.41743">
        <ele>167</ele>
        <time>2022-06-18T15:51:13Z</time>
      </trkpt>
      <trkpt lat="43.73887" lon="1.41749">
        <ele>167</ele>
        <time>2022-06-18T15:51:18Z</time>
      </trkpt>
      <trkpt lat="43.73865" lon="1.41765">
        <ele>167</ele>
        <time>2022-06-18T15:51:24Z</time>
      </trkpt>
      <trkpt lat="43.73823" lon="1.41782">
        <ele>166</ele>
        <time>2022-06-18T15:51:34Z</time>
      </trkpt>
      <trkpt lat="43.73779" lon="1.41794">
        <ele>165</ele>
        <time>2022-06-18T15:51:44Z</time>
      </trkpt>
      <trkpt lat="43.73768" lon="1.41789">
        <ele>165</ele>
        <time>2022-06-18T15:51:47Z</time>
      </trkpt>
      <trkpt lat="43.73746" lon="1.41764">
        <ele>166</ele>
        <time>2022-06-18T15:51:54Z</time>
      </trkpt>
      <trkpt lat="43.73701" lon="1.4175">
        <ele>165</ele>
        <time>2022-06-18T15:52:04Z</time>
      </trkpt>
      <trkpt lat="43.73696" lon="1.41743">
        <ele>165</ele>
        <time>2022-06-18T15:52:06Z</time>
      </trkpt>
      <trkpt lat="43.73692" lon="1.41719">
        <ele>166</ele>
        <time>2022-06-18T15:52:10Z</time>
      </trkpt>
      <trkpt lat="43.73702" lon="1.41689">
        <ele>168</ele>
        <time>2022-06-18T15:52:16Z</time>
      </trkpt>
      <trkpt lat="43.7372" lon="1.41668">
        <ele>170</ele>
        <time>2022-06-18T15:52:21Z</time>
      </trkpt>
      <trkpt lat="43.73726" lon="1.41631">
        <ele>171</ele>
        <time>2022-06-18T15:52:28Z</time>
      </trkpt>
      <trkpt lat="43.7374" lon="1.41617">
        <ele>173</ele>
        <time>2022-06-18T15:52:32Z</time>
      </trkpt>
      <trkpt lat="43.73764" lon="1.41606">
        <ele>174</ele>
        <time>2022-06-18T15:52:38Z</time>
      </trkpt>
      <trkpt lat="43.73774" lon="1.41592">
        <ele>175</ele>
        <time>2022-06-18T15:52:41Z</time>
      </trkpt>
      <trkpt lat="43.73847" lon="1.41555">
        <ele>176</ele>
        <time>2022-06-18T15:52:59Z</time>
      </trkpt>
      <trkpt lat="43.73856" lon="1.41557">
        <ele>176</ele>
        <time>2022-06-18T15:53:01Z</time>
      </trkpt>
      <trkpt lat="43.73873" lon="1.41595">
        <ele>175</ele>
        <time>2022-06-18T15:53:09Z</time>
      </trkpt>
      <trkpt lat="43.73885" lon="1.416">
        <ele>174</ele>
        <time>2022-06-18T15:53:12Z</time>
      </trkpt>
      <trkpt lat="43.73905" lon="1.41595">
        <ele>173</ele>
        <time>2022-06-18T15:53:16Z</time>
      </trkpt>
      <trkpt lat="43.73928" lon="1.41574">
        <ele>173</ele>
        <time>2022-06-18T15:53:23Z</time>
      </trkpt>
      <trkpt lat="43.73958" lon="1.41567">
        <ele>172</ele>
        <time>2022-06-18T15:53:30Z</time>
      </trkpt>
      <trkpt lat="43.73934" lon="1.41573">
        <ele>173</ele>
        <time>2022-06-18T15:53:36Z</time>
      </trkpt>
      <trkpt lat="43.73926" lon="1.41562">
        <ele>173</ele>
        <time>2022-06-18T15:53:38Z</time>
      </trkpt>
      <trkpt lat="43.739" lon="1.41455">
        <ele>177</ele>
        <time>2022-06-18T15:53:57Z</time>
      </trkpt>
      <trkpt lat="43.73889" lon="1.41392">
        <ele>177</ele>
        <time>2022-06-18T15:54:08Z</time>
      </trkpt>
      <trkpt lat="43.73879" lon="1.41364">
        <ele>177</ele>
        <time>2022-06-18T15:54:14Z</time>
      </trkpt>
      <trkpt lat="43.73879" lon="1.4135">
        <ele>177</ele>
        <time>2022-06-18T15:54:16Z</time>
      </trkpt>
      <trkpt lat="43.73883" lon="1.41344">
        <ele>177</ele>
        <time>2022-06-18T15:54:17Z</time>
      </trkpt>
      <trkpt lat="43.73936" lon="1.41301">
        <ele>178</ele>
        <time>2022-06-18T15:54:32Z</time>
      </trkpt>
      <trkpt lat="43.73947" lon="1.41296">
        <ele>178</ele>
        <time>2022-06-18T15:54:34Z</time>
      </trkpt>
      <trkpt lat="43.73965" lon="1.41295">
        <ele>178</ele>
        <time>2022-06-18T15:54:39Z</time>
      </trkpt>
      <trkpt lat="43.7398" lon="1.41306">
        <ele>177</ele>
        <time>2022-06-18T15:54:43Z</time>
      </trkpt>
      <trkpt lat="43.74007" lon="1.41368">
        <ele>175</ele>
        <time>2022-06-18T15:54:55Z</time>
      </trkpt>
      <trkpt lat="43.73994" lon="1.4133">
        <ele>176</ele>
        <time>2022-06-18T15:55:02Z</time>
      </trkpt>
      <trkpt lat="43.74009" lon="1.41331">
        <ele>176</ele>
        <time>2022-06-18T15:55:05Z</time>
      </trkpt>
      <trkpt lat="43.74031" lon="1.41348">
        <ele>174</ele>
        <time>2022-06-18T15:55:11Z</time>
      </trkpt>
      <trkpt lat="43.7405" lon="1.41356">
        <ele>173</ele>
        <time>2022-06-18T15:55:16Z</time>
      </trkpt>
      <trkpt lat="43.74084" lon="1.41402">
        <ele>171</ele>
        <time>2022-06-18T15:55:27Z</time>
      </trkpt>
      <trkpt lat="43.74121" lon="1.41411">
        <ele>167</ele>
        <time>2022-06-18T15:55:36Z</time>
      </trkpt>
      <trkpt lat="43.74133" lon="1.41421">
        <ele>165</ele>
        <time>2022-06-18T15:55:39Z</time>
      </trkpt>
      <trkpt lat="43.74138" lon="1.41422">
        <ele>164</ele>
        <time>2022-06-18T15:55:40Z</time>
      </trkpt>
      <trkpt lat="43.74166" lon="1.41397">
        <ele>162</ele>
        <time>2022-06-18T15:55:48Z</time>
      </trkpt>
      <trkpt lat="43.74182" lon="1.41391">
        <ele>161</ele>
        <time>2022-06-18T15:55:52Z</time>
      </trkpt>
      <trkpt lat="43.74188" lon="1.41394">
        <ele>161</ele>
        <time>2022-06-18T15:55:53Z</time>
      </trkpt>
      <trkpt lat="43.74206" lon="1.41419">
        <ele>159</ele>
        <time>2022-06-18T15:55:59Z</time>
      </trkpt>
      <trkpt lat="43.74252" lon="1.41455">
        <ele>155</ele>
        <time>2022-06-18T15:56:12Z</time>
      </trkpt>
      <trkpt lat="43.74274" lon="1.41494">
        <ele>153</ele>
        <time>2022-06-18T15:56:20Z</time>
      </trkpt>
      <trkpt lat="43.74291" lon="1.41515">
        <ele>151</ele>
        <time>2022-06-18T15:56:25Z</time>
      </trkpt>
      <trkpt lat="43.74428" lon="1.41602">
        <ele>144</ele>
        <time>2022-06-18T15:57:00Z</time>
      </trkpt>
      <trkpt lat="43.74438" lon="1.41598">
        <ele>144</ele>
        <time>2022-06-18T15:57:03Z</time>
      </trkpt>
      <trkpt lat="43.74452" lon="1.41564">
        <ele>145</ele>
        <time>2022-06-18T15:57:10Z</time>
      </trkpt>
      <trkpt lat="43.74462" lon="1.41555">
        <ele>145</ele>
        <time>2022-06-18T15:57:12Z</time>
      </trkpt>
      <trkpt lat="43.74494" lon="1.41564">
        <ele>145</ele>
        <time>2022-06-18T15:57:20Z</time>
      </trkpt>
      <trkpt lat="43.74539" lon="1.41586">
        <ele>144</ele>
        <time>2022-06-18T15:57:31Z</time>
      </trkpt>
      <trkpt lat="43.74549" lon="1.41587">
        <ele>143</ele>
        <time>2022-06-18T15:57:33Z</time>
      </trkpt>
      <trkpt lat="43.74566" lon="1.41574">
        <ele>143</ele>
        <time>2022-06-18T15:57:38Z</time>
      </trkpt>
      <trkpt lat="43.74574" lon="1.41576">
        <ele>142</ele>
        <time>2022-06-18T15:57:40Z</time>
      </trkpt>
      <trkpt lat="43.74667" lon="1.41428">
        <ele>139</ele>
        <time>2022-06-18T15:58:13Z</time>
      </trkpt>
      <trkpt lat="43.74756" lon="1.41313">
        <ele>138</ele>
        <time>2022-06-18T15:58:41Z</time>
      </trkpt>
      <trkpt lat="43.74853" lon="1.41171">
        <ele>137</ele>
        <time>2022-06-18T15:59:14Z</time>
      </trkpt>
      <trkpt lat="43.74877" lon="1.4113">
        <ele>137</ele>
        <time>2022-06-18T15:59:23Z</time>
      </trkpt>
      <trkpt lat="43.74881" lon="1.41106">
        <ele>137</ele>
        <time>2022-06-18T15:59:27Z</time>
      </trkpt>
      <trkpt lat="43.74873" lon="1.41043">
        <ele>137</ele>
        <time>2022-06-18T15:59:38Z</time>
      </trkpt>
      <trkpt lat="43.74839" lon="1.40859">
        <ele>138</ele>
        <time>2022-06-18T16:00:10Z</time>
      </trkpt>
      <trkpt lat="43.74844" lon="1.40853">
        <ele>138</ele>
        <time>2022-06-18T16:00:12Z</time>
      </trkpt>
      <trkpt lat="43.74886" lon="1.40838">
        <ele>138</ele>
        <time>2022-06-18T16:00:22Z</time>
      </trkpt>
      <trkpt lat="43.74894" lon="1.40826">
        <ele>138</ele>
        <time>2022-06-18T16:00:25Z</time>
      </trkpt>
      <trkpt lat="43.74882" lon="1.40741">
        <ele>138</ele>
        <time>2022-06-18T16:00:39Z</time>
      </trkpt>
      <trkpt lat="43.74885" lon="1.40728">
        <ele>138</ele>
        <time>2022-06-18T16:00:42Z</time>
      </trkpt>
      <trkpt lat="43.74888" lon="1.40724">
        <ele>138</ele>
        <time>2022-06-18T16:00:43Z</time>
      </trkpt>
      <trkpt lat="43.74908" lon="1.4072">
        <ele>138</ele>
        <time>2022-06-18T16:00:47Z</time>
      </trkpt>
      <trkpt lat="43.75003" lon="1.40713">
        <ele>130</ele>
        <time>2022-06-18T16:01:09Z</time>
      </trkpt>
      <trkpt lat="43.75036" lon="1.40707">
        <ele>128</ele>
        <time>2022-06-18T16:01:17Z</time>
      </trkpt>
      <trkpt lat="43.75067" lon="1.40698">
        <ele>126</ele>
        <time>2022-06-18T16:01:25Z</time>
      </trkpt>
      <trkpt lat="43.7507" lon="1.40694">
        <ele>126</ele>
        <time>2022-06-18T16:01:26Z</time>
      </trkpt>
      <trkpt lat="43.75068" lon="1.40682">
        <ele>125</ele>
        <time>2022-06-18T16:01:28Z</time>
      </trkpt>
      <trkpt lat="43.74989" lon="1.40565">
        <ele>128</ele>
        <time>2022-06-18T16:01:55Z</time>
      </trkpt>
      <trkpt lat="43.74954" lon="1.4052">
        <ele>130</ele>
        <time>2022-06-18T16:02:06Z</time>
      </trkpt>
      <trkpt lat="43.74934" lon="1.40502">
        <ele>132</ele>
        <time>2022-06-18T16:02:11Z</time>
      </trkpt>
      <trkpt lat="43.74917" lon="1.40512">
        <ele>133</ele>
        <time>2022-06-18T16:02:16Z</time>
      </trkpt>
      <trkpt lat="43.74803" lon="1.40549">
        <ele>136</ele>
        <time>2022-06-18T16:02:43Z</time>
      </trkpt>
      <trkpt lat="43.74739" lon="1.405">
        <ele>138</ele>
        <time>2022-06-18T16:03:00Z</time>
      </trkpt>
      <trkpt lat="43.74715" lon="1.405">
        <ele>139</ele>
        <time>2022-06-18T16:03:06Z</time>
      </trkpt>
      <trkpt lat="43.74673" lon="1.40486">
        <ele>141</ele>
        <time>2022-06-18T16:03:16Z</time>
      </trkpt>
      <trkpt lat="43.74587" lon="1.40427">
        <ele>149</ele>
        <time>2022-06-18T16:03:38Z</time>
      </trkpt>
      <trkpt lat="43.74578" lon="1.40437">
        <ele>149</ele>
        <time>2022-06-18T16:03:41Z</time>
      </trkpt>
      <trkpt lat="43.74569" lon="1.40439">
        <ele>150</ele>
        <time>2022-06-18T16:03:43Z</time>
      </trkpt>
      <trkpt lat="43.74558" lon="1.40452">
        <ele>151</ele>
        <time>2022-06-18T16:03:46Z</time>
      </trkpt>
      <trkpt lat="43.74554" lon="1.40473">
        <ele>151</ele>
        <time>2022-06-18T16:03:50Z</time>
      </trkpt>
      <trkpt lat="43.74527" lon="1.40544">
        <ele>153</ele>
        <time>2022-06-18T16:04:04Z</time>
      </trkpt>
      <trkpt lat="43.74497" lon="1.40562">
        <ele>156</ele>
        <time>2022-06-18T16:04:11Z</time>
      </trkpt>
      <trkpt lat="43.74489" lon="1.40555">
        <ele>156</ele>
        <time>2022-06-18T16:04:14Z</time>
      </trkpt>
      <trkpt lat="43.74453" lon="1.40554">
        <ele>159</ele>
        <time>2022-06-18T16:04:22Z</time>
      </trkpt>
      <trkpt lat="43.74423" lon="1.40546">
        <ele>161</ele>
        <time>2022-06-18T16:04:29Z</time>
      </trkpt>
      <trkpt lat="43.74401" lon="1.40531">
        <ele>162</ele>
        <time>2022-06-18T16:04:35Z</time>
      </trkpt>
      <trkpt lat="43.74381" lon="1.40526">
        <ele>164</ele>
        <time>2022-06-18T16:04:40Z</time>
      </trkpt>
      <trkpt lat="43.74365" lon="1.40512">
        <ele>165</ele>
        <time>2022-06-18T16:04:44Z</time>
      </trkpt>
      <trkpt lat="43.74333" lon="1.40518">
        <ele>168</ele>
        <time>2022-06-18T16:04:52Z</time>
      </trkpt>
      <trkpt lat="43.74308" lon="1.40532">
        <ele>168</ele>
        <time>2022-06-18T16:04:58Z</time>
      </trkpt>
      <trkpt lat="43.74294" lon="1.40533">
        <ele>169</ele>
        <time>2022-06-18T16:05:01Z</time>
      </trkpt>
      <trkpt lat="43.74205" lon="1.4048">
        <ele>170</ele>
        <time>2022-06-18T16:05:24Z</time>
      </trkpt>
      <trkpt lat="43.74137" lon="1.40399">
        <ele>172</ele>
        <time>2022-06-18T16:05:45Z</time>
      </trkpt>
      <trkpt lat="43.74125" lon="1.40419">
        <ele>173</ele>
        <time>2022-06-18T16:05:49Z</time>
      </trkpt>
      <trkpt lat="43.74106" lon="1.40475">
        <ele>173</ele>
        <time>2022-06-18T16:05:59Z</time>
      </trkpt>
      <trkpt lat="43.74095" lon="1.40491">
        <ele>174</ele>
        <time>2022-06-18T16:06:03Z</time>
      </trkpt>
      <trkpt lat="43.73995" lon="1.40444">
        <ele>174</ele>
        <time>2022-06-18T16:06:28Z</time>
      </trkpt>
      <trkpt lat="43.7399" lon="1.40446">
        <ele>174</ele>
        <time>2022-06-18T16:06:29Z</time>
      </trkpt>
      <trkpt lat="43.73975" lon="1.40468">
        <ele>174</ele>
        <time>2022-06-18T16:06:34Z</time>
      </trkpt>
      <trkpt lat="43.73965" lon="1.40469">
        <ele>174</ele>
        <time>2022-06-18T16:06:37Z</time>
      </trkpt>
      <trkpt lat="43.73896" lon="1.40427">
        <ele>175</ele>
        <time>2022-06-18T16:06:54Z</time>
      </trkpt>
      <trkpt lat="43.73864" lon="1.404">
        <ele>176</ele>
        <time>2022-06-18T16:07:03Z</time>
      </trkpt>
      <trkpt lat="43.73854" lon="1.40388">
        <ele>175</ele>
        <time>2022-06-18T16:07:06Z</time>
      </trkpt>
      <trkpt lat="43.73803" lon="1.40469">
        <ele>173</ele>
        <time>2022-06-18T16:11:46Z</time>
      </trkpt>
      <trkpt lat="43.7379" lon="1.4046">
        <ele>172</ele>
        <time>2022-06-18T16:11:50Z</time>
      </trkpt>
      <trkpt lat="43.7374" lon="1.40387">
        <ele>159</ele>
        <time>2022-06-18T16:12:07Z</time>
      </trkpt>
      <trkpt lat="43.737" lon="1.40346">
        <ele>147</ele>
        <time>2022-06-18T16:12:18Z</time>
      </trkpt>
      <trkpt lat="43.73658" lon="1.40292">
        <ele>136</ele>
        <time>2022-06-18T16:12:32Z</time>
      </trkpt>
      <trkpt lat="43.73602" lon="1.40201">
        <ele>129</ele>
        <time>2022-06-18T16:12:52Z</time>
      </trkpt>
      <trkpt lat="43.73585" lon="1.40183">
        <ele>128</ele>
        <time>2022-06-18T16:12:57Z</time>
      </trkpt>
      <trkpt lat="43.73577" lon="1.40181">
        <ele>128</ele>
        <time>2022-06-18T16:12:59Z</time>
      </trkpt>
      <trkpt lat="43.73518" lon="1.40198">
        <ele>127</ele>
        <time>2022-06-18T16:13:13Z</time>
      </trkpt>
      <trkpt lat="43.735" lon="1.40193">
        <ele>126</ele>
        <time>2022-06-18T16:13:17Z</time>
      </trkpt>
      <trkpt lat="43.73473" lon="1.40174">
        <ele>125</ele>
        <time>2022-06-18T16:13:24Z</time>
      </trkpt>
      <trkpt lat="43.73456" lon="1.40173">
        <ele>124</ele>
        <time>2022-06-18T16:13:28Z</time>
      </trkpt>
      <trkpt lat="43.7338" lon="1.40196">
        <ele>123</ele>
        <time>2022-06-18T16:13:46Z</time>
      </trkpt>
      <trkpt lat="43.73342" lon="1.4022">
        <ele>122</ele>
        <time>2022-06-18T16:13:56Z</time>
      </trkpt>
      <trkpt lat="43.73327" lon="1.40224">
        <ele>122</ele>
        <time>2022-06-18T16:14:00Z</time>
      </trkpt>
      <trkpt lat="43.73312" lon="1.40215">
        <ele>122</ele>
        <time>2022-06-18T16:14:04Z</time>
      </trkpt>
      <trkpt lat="43.7328" lon="1.4017">
        <ele>121</ele>
        <time>2022-06-18T16:14:14Z</time>
      </trkpt>
      <trkpt lat="43.73249" lon="1.40144">
        <ele>121</ele>
        <time>2022-06-18T16:14:23Z</time>
      </trkpt>
      <trkpt lat="43.73232" lon="1.40139">
        <ele>121</ele>
        <time>2022-06-18T16:14:27Z</time>
      </trkpt>
      <trkpt lat="43.73187" lon="1.40141">
        <ele>120</ele>
        <time>2022-06-18T16:14:37Z</time>
      </trkpt>
      <trkpt lat="43.73151" lon="1.40149">
        <ele>120</ele>
        <time>2022-06-18T16:14:46Z</time>
      </trkpt>
      <trkpt lat="43.73097" lon="1.40169">
        <ele>120</ele>
        <time>2022-06-18T16:14:59Z</time>
      </trkpt>
      <trkpt lat="43.72989" lon="1.40211">
        <ele>119</ele>
        <time>2022-06-18T16:15:25Z</time>
      </trkpt>
      <trkpt lat="43.72934" lon="1.40239">
        <ele>121</ele>
        <time>2022-06-18T16:15:39Z</time>
      </trkpt>
      <trkpt lat="43.72894" lon="1.40273">
        <ele>121</ele>
        <time>2022-06-18T16:15:50Z</time>
      </trkpt>
      <trkpt lat="43.72837" lon="1.40365">
        <ele>120</ele>
        <time>2022-06-18T16:16:10Z</time>
      </trkpt>
      <trkpt lat="43.728" lon="1.40415">
        <ele>120</ele>
        <time>2022-06-18T16:16:22Z</time>
      </trkpt>
      <trkpt lat="43.72769" lon="1.40436">
        <ele>121</ele>
        <time>2022-06-18T16:16:30Z</time>
      </trkpt>
      <trkpt lat="43.72657" lon="1.4048">
        <ele>120</ele>
        <time>2022-06-18T16:16:57Z</time>
      </trkpt>
      <trkpt lat="43.72575" lon="1.40548">
        <ele>121</ele>
        <time>2022-06-18T16:17:20Z</time>
      </trkpt>
      <trkpt lat="43.72559" lon="1.40557">
        <ele>121</ele>
        <time>2022-06-18T16:17:24Z</time>
      </trkpt>
      <trkpt lat="43.72536" lon="1.40565">
        <ele>121</ele>
        <time>2022-06-18T16:17:29Z</time>
      </trkpt>
      <trkpt lat="43.72349" lon="1.40603">
        <ele>122</ele>
        <time>2022-06-18T16:18:13Z</time>
      </trkpt>
      <trkpt lat="43.72277" lon="1.4064">
        <ele>122</ele>
        <time>2022-06-18T16:18:31Z</time>
      </trkpt>
      <trkpt lat="43.72251" lon="1.40641">
        <ele>121</ele>
        <time>2022-06-18T16:18:38Z</time>
      </trkpt>
      <trkpt lat="43.72204" lon="1.40631">
        <ele>122</ele>
        <time>2022-06-18T16:18:49Z</time>
      </trkpt>
      <trkpt lat="43.7215" lon="1.40643">
        <ele>123</ele>
        <time>2022-06-18T16:19:01Z</time>
      </trkpt>
      <trkpt lat="43.72113" lon="1.40657">
        <ele>123</ele>
        <time>2022-06-18T16:19:10Z</time>
      </trkpt>
      <trkpt lat="43.72076" lon="1.40677">
        <ele>123</ele>
        <time>2022-06-18T16:19:20Z</time>
      </trkpt>
      <trkpt lat="43.72057" lon="1.40693">
        <ele>123</ele>
        <time>2022-06-18T16:19:25Z</time>
      </trkpt>
      <trkpt lat="43.72048" lon="1.40714">
        <ele>123</ele>
        <time>2022-06-18T16:19:29Z</time>
      </trkpt>
      <trkpt lat="43.72025" lon="1.40699">
        <ele>123</ele>
        <time>2022-06-18T16:19:35Z</time>
      </trkpt>
      <trkpt lat="43.71987" lon="1.40685">
        <ele>122</ele>
        <time>2022-06-18T16:19:44Z</time>
      </trkpt>
      <trkpt lat="43.71916" lon="1.40665">
        <ele>124</ele>
        <time>2022-06-18T16:20:01Z</time>
      </trkpt>
      <trkpt lat="43.71844" lon="1.4065">
        <ele>123</ele>
        <time>2022-06-18T16:20:18Z</time>
      </trkpt>
      <trkpt lat="43.71834" lon="1.40652">
        <ele>123</ele>
        <time>2022-06-18T16:20:20Z</time>
      </trkpt>
      <trkpt lat="43.71826" lon="1.40665">
        <ele>123</ele>
        <time>2022-06-18T16:20:23Z</time>
      </trkpt>
      <trkpt lat="43.71814" lon="1.40674">
        <ele>123</ele>
        <time>2022-06-18T16:20:26Z</time>
      </trkpt>
      <trkpt lat="43.71782" lon="1.40679">
        <ele>122</ele>
        <time>2022-06-18T16:20:34Z</time>
      </trkpt>
      <trkpt lat="43.71773" lon="1.40699">
        <ele>122</ele>
        <time>2022-06-18T16:20:38Z</time>
      </trkpt>
      <trkpt lat="43.71737" lon="1.40846">
        <ele>121</ele>
        <time>2022-06-18T16:21:04Z</time>
      </trkpt>
      <trkpt lat="43.717" lon="1.4096">
        <ele>122</ele>
        <time>2022-06-18T16:21:25Z</time>
      </trkpt>
      <trkpt lat="43.71666" lon="1.40995">
        <ele>122</ele>
        <time>2022-06-18T16:21:35Z</time>
      </trkpt>
      <trkpt lat="43.71608" lon="1.41023">
        <ele>123</ele>
        <time>2022-06-18T16:21:49Z</time>
      </trkpt>
      <trkpt lat="43.71479" lon="1.41035">
        <ele>121</ele>
        <time>2022-06-18T16:22:20Z</time>
      </trkpt>
      <trkpt lat="43.71379" lon="1.41031">
        <ele>121</ele>
        <time>2022-06-18T16:22:43Z</time>
      </trkpt>
      <trkpt lat="43.71313" lon="1.41044">
        <ele>122</ele>
        <time>2022-06-18T16:22:59Z</time>
      </trkpt>
      <trkpt lat="43.71271" lon="1.41037">
        <ele>122</ele>
        <time>2022-06-18T16:23:08Z</time>
      </trkpt>
      <trkpt lat="43.71203" lon="1.41047">
        <ele>121</ele>
        <time>2022-06-18T16:23:24Z</time>
      </trkpt>
      <trkpt lat="43.7114" lon="1.4104">
        <ele>122</ele>
        <time>2022-06-18T16:23:39Z</time>
      </trkpt>
      <trkpt lat="43.71094" lon="1.4104">
        <ele>123</ele>
        <time>2022-06-18T16:23:50Z</time>
      </trkpt>
      <trkpt lat="43.70998" lon="1.41051">
        <ele>124</ele>
        <time>2022-06-18T16:24:12Z</time>
      </trkpt>
      <trkpt lat="43.70903" lon="1.41071">
        <ele>124</ele>
        <time>2022-06-18T16:24:35Z</time>
      </trkpt>
      <trkpt lat="43.70875" lon="1.41071">
        <ele>124</ele>
        <time>2022-06-18T16:24:41Z</time>
      </trkpt>
      <trkpt lat="43.70841" lon="1.41062">
        <ele>124</ele>
        <time>2022-06-18T16:24:49Z</time>
      </trkpt>
      <trkpt lat="43.70813" lon="1.41062">
        <ele>124</ele>
        <time>2022-06-18T16:24:56Z</time>
      </trkpt>
      <trkpt lat="43.70756" lon="1.41074">
        <ele>124</ele>
        <time>2022-06-18T16:25:09Z</time>
      </trkpt>
      <trkpt lat="43.70709" lon="1.41077">
        <ele>124</ele>
        <time>2022-06-18T16:25:20Z</time>
      </trkpt>
      <trkpt lat="43.70623" lon="1.4107">
        <ele>124</ele>
        <time>2022-06-18T16:25:41Z</time>
      </trkpt>
      <trkpt lat="43.70567" lon="1.41076">
        <ele>124</ele>
        <time>2022-06-18T16:25:54Z</time>
      </trkpt>
      <trkpt lat="43.70455" lon="1.41096">
        <ele>123</ele>
        <time>2022-06-18T16:26:20Z</time>
      </trkpt>
      <trkpt lat="43.70411" lon="1.41111">
        <ele>123</ele>
        <time>2022-06-18T16:26:31Z</time>
      </trkpt>
      <trkpt lat="43.70378" lon="1.41128">
        <ele>123</ele>
        <time>2022-06-18T16:26:39Z</time>
      </trkpt>
      <trkpt lat="43.70347" lon="1.41151">
        <ele>123</ele>
        <time>2022-06-18T16:26:47Z</time>
      </trkpt>
      <trkpt lat="43.70308" lon="1.41189">
        <ele>123</ele>
        <time>2022-06-18T16:26:58Z</time>
      </trkpt>
      <trkpt lat="43.70185" lon="1.41352">
        <ele>124</ele>
        <time>2022-06-18T16:27:38Z</time>
      </trkpt>
      <trkpt lat="43.70129" lon="1.41412">
        <ele>124</ele>
        <time>2022-06-18T16:27:55Z</time>
      </trkpt>
      <trkpt lat="43.70075" lon="1.41484">
        <ele>123</ele>
        <time>2022-06-18T16:28:12Z</time>
      </trkpt>
      <trkpt lat="43.7002" lon="1.41545">
        <ele>123</ele>
        <time>2022-06-18T16:28:29Z</time>
      </trkpt>
      <trkpt lat="43.69958" lon="1.41627">
        <ele>124</ele>
        <time>2022-06-18T16:28:49Z</time>
      </trkpt>
      <trkpt lat="43.69886" lon="1.41707">
        <ele>124</ele>
        <time>2022-06-18T16:29:10Z</time>
      </trkpt>
      <trkpt lat="43.69796" lon="1.41822">
        <ele>126</ele>
        <time>2022-06-18T16:29:39Z</time>
      </trkpt>
      <trkpt lat="43.69635" lon="1.42008">
        <ele>126</ele>
        <time>2022-06-18T16:30:28Z</time>
      </trkpt>
      <trkpt lat="43.69582" lon="1.42084">
        <ele>125</ele>
        <time>2022-06-18T16:30:46Z</time>
      </trkpt>
      <trkpt lat="43.69516" lon="1.42161">
        <ele>123</ele>
        <time>2022-06-18T16:31:06Z</time>
      </trkpt>
      <trkpt lat="43.69494" lon="1.42197">
        <ele>124</ele>
        <time>2022-06-18T16:31:14Z</time>
      </trkpt>
      <trkpt lat="43.69472" lon="1.42223">
        <ele>125</ele>
        <time>2022-06-18T16:31:20Z</time>
      </trkpt>
      <trkpt lat="43.69378" lon="1.42366">
        <ele>128</ele>
        <time>2022-06-18T16:31:53Z</time>
      </trkpt>
      <trkpt lat="43.69307" lon="1.42508">
        <ele>127</ele>
        <time>2022-06-18T16:32:22Z</time>
      </trkpt>
      <trkpt lat="43.69276" lon="1.42542">
        <ele>127</ele>
        <time>2022-06-18T16:32:31Z</time>
      </trkpt>
      <trkpt lat="43.69213" lon="1.42586">
        <ele>126</ele>
        <time>2022-06-18T16:32:48Z</time>
      </trkpt>
      <trkpt lat="43.69126" lon="1.42605">
        <ele>127</ele>
        <time>2022-06-18T16:33:09Z</time>
      </trkpt>
      <trkpt lat="43.69066" lon="1.42652">
        <ele>129</ele>
        <time>2022-06-18T16:33:25Z</time>
      </trkpt>
      <trkpt lat="43.69002" lon="1.42662">
        <ele>128</ele>
        <time>2022-06-18T16:33:40Z</time>
      </trkpt>
      <trkpt lat="43.68968" lon="1.42676">
        <ele>129</ele>
        <time>2022-06-18T16:33:48Z</time>
      </trkpt>
      <trkpt lat="43.68897" lon="1.42727">
        <ele>130</ele>
        <time>2022-06-18T16:34:07Z</time>
      </trkpt>
      <trkpt lat="43.68875" lon="1.42738">
        <ele>131</ele>
        <time>2022-06-18T16:34:12Z</time>
      </trkpt>
      <trkpt lat="43.68864" lon="1.42737">
        <ele>131</ele>
        <time>2022-06-18T16:34:15Z</time>
      </trkpt>
      <trkpt lat="43.68803" lon="1.42698">
        <ele>130</ele>
        <time>2022-06-18T16:34:30Z</time>
      </trkpt>
      <trkpt lat="43.6874" lon="1.42648">
        <ele>129</ele>
        <time>2022-06-18T16:34:47Z</time>
      </trkpt>
      <trkpt lat="43.68732" lon="1.42637">
        <ele>129</ele>
        <time>2022-06-18T16:34:50Z</time>
      </trkpt>
      <trkpt lat="43.68725" lon="1.42585">
        <ele>128</ele>
        <time>2022-06-18T16:34:59Z</time>
      </trkpt>
      <trkpt lat="43.68719" lon="1.42577">
        <ele>128</ele>
        <time>2022-06-18T16:35:01Z</time>
      </trkpt>
      <trkpt lat="43.68675" lon="1.426">
        <ele>128</ele>
        <time>2022-06-18T16:35:12Z</time>
      </trkpt>
      <trkpt lat="43.68543" lon="1.42763">
        <ele>129</ele>
        <time>2022-06-18T16:35:53Z</time>
      </trkpt>
      <trkpt lat="43.68484" lon="1.42826">
        <ele>129</ele>
        <time>2022-06-18T16:36:11Z</time>
      </trkpt>
      <trkpt lat="43.68453" lon="1.42851">
        <ele>129</ele>
        <time>2022-06-18T16:36:19Z</time>
      </trkpt>
      <trkpt lat="43.68328" lon="1.42999">
        <ele>126</ele>
        <time>2022-06-18T16:36:57Z</time>
      </trkpt>
      <trkpt lat="43.68306" lon="1.43024">
        <ele>127</ele>
        <time>2022-06-18T16:37:04Z</time>
      </trkpt>
      <trkpt lat="43.68291" lon="1.43035">
        <ele>127</ele>
        <time>2022-06-18T16:37:08Z</time>
      </trkpt>
      <trkpt lat="43.68266" lon="1.43066">
        <ele>128</ele>
        <time>2022-06-18T16:37:16Z</time>
      </trkpt>
      <trkpt lat="43.68244" lon="1.43103">
        <ele>128</ele>
        <time>2022-06-18T16:37:24Z</time>
      </trkpt>
      <trkpt lat="43.68114" lon="1.43269">
        <ele>129</ele>
        <time>2022-06-18T16:38:05Z</time>
      </trkpt>
      <trkpt lat="43.68075" lon="1.43329">
        <ele>130</ele>
        <time>2022-06-18T16:38:19Z</time>
      </trkpt>
      <trkpt lat="43.68062" lon="1.43352">
        <ele>130</ele>
        <time>2022-06-18T16:38:24Z</time>
      </trkpt>
      <trkpt lat="43.68059" lon="1.43392">
        <ele>129</ele>
        <time>2022-06-18T16:38:31Z</time>
      </trkpt>
      <trkpt lat="43.68013" lon="1.43431">
        <ele>130</ele>
        <time>2022-06-18T16:38:43Z</time>
      </trkpt>
      <trkpt lat="43.67993" lon="1.43463">
        <ele>130</ele>
        <time>2022-06-18T16:38:50Z</time>
      </trkpt>
      <trkpt lat="43.67961" lon="1.43503">
        <ele>130</ele>
        <time>2022-06-18T16:39:00Z</time>
      </trkpt>
      <trkpt lat="43.67892" lon="1.43609">
        <ele>130</ele>
        <time>2022-06-18T16:39:24Z</time>
      </trkpt>
      <trkpt lat="43.67873" lon="1.43626">
        <ele>129</ele>
        <time>2022-06-18T16:39:30Z</time>
      </trkpt>
      <trkpt lat="43.67776" lon="1.43751">
        <ele>129</ele>
        <time>2022-06-18T16:40:01Z</time>
      </trkpt>
      <trkpt lat="43.6776" lon="1.43767">
        <ele>129</ele>
        <time>2022-06-18T16:40:05Z</time>
      </trkpt>
      <trkpt lat="43.67726" lon="1.43788">
        <ele>130</ele>
        <time>2022-06-18T16:40:14Z</time>
      </trkpt>
      <trkpt lat="43.67683" lon="1.43829">
        <ele>130</ele>
        <time>2022-06-18T16:40:26Z</time>
      </trkpt>
      <trkpt lat="43.67662" lon="1.43842">
        <ele>130</ele>
        <time>2022-06-18T16:40:32Z</time>
      </trkpt>
      <trkpt lat="43.67652" lon="1.43855">
        <ele>130</ele>
        <time>2022-06-18T16:40:35Z</time>
      </trkpt>
      <trkpt lat="43.67591" lon="1.43897">
        <ele>129</ele>
        <time>2022-06-18T16:40:51Z</time>
      </trkpt>
      <trkpt lat="43.67545" lon="1.43984">
        <ele>129</ele>
        <time>2022-06-18T16:41:09Z</time>
      </trkpt>
      <trkpt lat="43.67503" lon="1.44105">
        <ele>130</ele>
        <time>2022-06-18T16:41:32Z</time>
      </trkpt>
      <trkpt lat="43.67481" lon="1.44182">
        <ele>130</ele>
        <time>2022-06-18T16:41:46Z</time>
      </trkpt>
      <trkpt lat="43.67469" lon="1.44241">
        <ele>130</ele>
        <time>2022-06-18T16:41:56Z</time>
      </trkpt>
      <trkpt lat="43.67455" lon="1.44351">
        <ele>130</ele>
        <time>2022-06-18T16:42:15Z</time>
      </trkpt>
      <trkpt lat="43.67447" lon="1.44568">
        <ele>132</ele>
        <time>2022-06-18T16:42:52Z</time>
      </trkpt>
      <trkpt lat="43.67436" lon="1.44657">
        <ele>133</ele>
        <time>2022-06-18T16:43:07Z</time>
      </trkpt>
      <trkpt lat="43.67443" lon="1.44683">
        <ele>133</ele>
        <time>2022-06-18T16:43:11Z</time>
      </trkpt>
      <trkpt lat="43.67445" lon="1.44728">
        <ele>133</ele>
        <time>2022-06-18T16:43:19Z</time>
      </trkpt>
      <trkpt lat="43.67462" lon="1.44861">
        <ele>134</ele>
        <time>2022-06-18T16:43:42Z</time>
      </trkpt>
      <trkpt lat="43.67503" lon="1.45011">
        <ele>133</ele>
        <time>2022-06-18T16:44:09Z</time>
      </trkpt>
      <trkpt lat="43.67491" lon="1.45024">
        <ele>133</ele>
        <time>2022-06-18T16:44:13Z</time>
      </trkpt>
      <trkpt lat="43.67401" lon="1.45092">
        <ele>132</ele>
        <time>2022-06-18T16:44:36Z</time>
      </trkpt>
      <trkpt lat="43.67394" lon="1.45094">
        <ele>132</ele>
        <time>2022-06-18T16:44:38Z</time>
      </trkpt>
      <trkpt lat="43.67387" lon="1.45089">
        <ele>132</ele>
        <time>2022-06-18T16:44:40Z</time>
      </trkpt>
      <trkpt lat="43.67365" lon="1.45038">
        <ele>132</ele>
        <time>2022-06-18T16:44:50Z</time>
      </trkpt>
      <trkpt lat="43.67344" lon="1.45028">
        <ele>132</ele>
        <time>2022-06-18T16:44:55Z</time>
      </trkpt>
      <trkpt lat="43.67332" lon="1.45033">
        <ele>132</ele>
        <time>2022-06-18T16:44:58Z</time>
      </trkpt>
      <trkpt lat="43.67253" lon="1.45091">
        <ele>133</ele>
        <time>2022-06-18T16:45:19Z</time>
      </trkpt>
      <trkpt lat="43.67214" lon="1.45102">
        <ele>134</ele>
        <time>2022-06-18T16:45:28Z</time>
      </trkpt>
      <trkpt lat="43.67191" lon="1.45128">
        <ele>134</ele>
        <time>2022-06-18T16:45:35Z</time>
      </trkpt>
      <trkpt lat="43.67168" lon="1.45145">
        <ele>135</ele>
        <time>2022-06-18T16:45:41Z</time>
      </trkpt>
      <trkpt lat="43.67157" lon="1.45145">
        <ele>135</ele>
        <time>2022-06-18T16:45:44Z</time>
      </trkpt>
      <trkpt lat="43.67143" lon="1.45135">
        <ele>134</ele>
        <time>2022-06-18T16:45:48Z</time>
      </trkpt>
      <trkpt lat="43.67137" lon="1.45135">
        <ele>134</ele>
        <time>2022-06-18T16:45:49Z</time>
      </trkpt>
      <trkpt lat="43.67095" lon="1.4516">
        <ele>133</ele>
        <time>2022-06-18T16:46:00Z</time>
      </trkpt>
      <trkpt lat="43.67085" lon="1.45162">
        <ele>133</ele>
        <time>2022-06-18T16:46:02Z</time>
      </trkpt>
      <trkpt lat="43.67067" lon="1.45145">
        <ele>133</ele>
        <time>2022-06-18T16:46:07Z</time>
      </trkpt>
      <trkpt lat="43.67057" lon="1.45142">
        <ele>132</ele>
        <time>2022-06-18T16:46:10Z</time>
      </trkpt>
      <trkpt lat="43.67038" lon="1.45155">
        <ele>132</ele>
        <time>2022-06-18T16:46:14Z</time>
      </trkpt>
      <trkpt lat="43.67021" lon="1.4516">
        <ele>132</ele>
        <time>2022-06-18T16:46:19Z</time>
      </trkpt>
      <trkpt lat="43.67013" lon="1.45152">
        <ele>131</ele>
        <time>2022-06-18T16:46:21Z</time>
      </trkpt>
      <trkpt lat="43.67006" lon="1.45131">
        <ele>131</ele>
        <time>2022-06-18T16:46:25Z</time>
      </trkpt>
      <trkpt lat="43.66958" lon="1.45036">
        <ele>130</ele>
        <time>2022-06-18T16:46:44Z</time>
      </trkpt>
      <trkpt lat="43.66934" lon="1.44969">
        <ele>131</ele>
        <time>2022-06-18T16:46:57Z</time>
      </trkpt>
      <trkpt lat="43.66917" lon="1.44946">
        <ele>131</ele>
        <time>2022-06-18T16:47:02Z</time>
      </trkpt>
      <trkpt lat="43.66901" lon="1.44938">
        <ele>131</ele>
        <time>2022-06-18T16:47:06Z</time>
      </trkpt>
      <trkpt lat="43.66838" lon="1.44923">
        <ele>131</ele>
        <time>2022-06-18T16:47:21Z</time>
      </trkpt>
      <trkpt lat="43.6679" lon="1.44901">
        <ele>131</ele>
        <time>2022-06-18T16:47:33Z</time>
      </trkpt>
      <trkpt lat="43.66762" lon="1.44873">
        <ele>131</ele>
        <time>2022-06-18T16:47:41Z</time>
      </trkpt>
      <trkpt lat="43.66754" lon="1.44835">
        <ele>132</ele>
        <time>2022-06-18T16:47:48Z</time>
      </trkpt>
      <trkpt lat="43.66741" lon="1.44822">
        <ele>132</ele>
        <time>2022-06-18T16:47:52Z</time>
      </trkpt>
      <trkpt lat="43.6673" lon="1.44823">
        <ele>132</ele>
        <time>2022-06-18T16:47:54Z</time>
      </trkpt>
      <trkpt lat="43.66691" lon="1.44854">
        <ele>131</ele>
        <time>2022-06-18T16:48:05Z</time>
      </trkpt>
      <trkpt lat="43.66675" lon="1.4486">
        <ele>130</ele>
        <time>2022-06-18T16:48:09Z</time>
      </trkpt>
      <trkpt lat="43.66653" lon="1.44861">
        <ele>130</ele>
        <time>2022-06-18T16:48:14Z</time>
      </trkpt>
      <trkpt lat="43.66637" lon="1.44856">
        <ele>130</ele>
        <time>2022-06-18T16:48:18Z</time>
      </trkpt>
      <trkpt lat="43.66619" lon="1.44837">
        <ele>130</ele>
        <time>2022-06-18T16:48:23Z</time>
      </trkpt>
      <trkpt lat="43.66551" lon="1.44734">
        <ele>131</ele>
        <time>2022-06-18T16:48:46Z</time>
      </trkpt>
      <trkpt lat="43.66515" lon="1.44712">
        <ele>131</ele>
        <time>2022-06-18T16:48:56Z</time>
      </trkpt>
      <trkpt lat="43.66468" lon="1.44821">
        <ele>132</ele>
        <time>2022-06-18T16:49:17Z</time>
      </trkpt>
      <trkpt lat="43.66413" lon="1.44995">
        <ele>134</ele>
        <time>2022-06-18T16:49:49Z</time>
      </trkpt>
      <trkpt lat="43.66399" lon="1.45018">
        <ele>134</ele>
        <time>2022-06-18T16:49:54Z</time>
      </trkpt>
      <trkpt lat="43.66383" lon="1.45095">
        <ele>134</ele>
        <time>2022-06-18T16:50:08Z</time>
      </trkpt>
      <trkpt lat="43.66361" lon="1.45134">
        <ele>134</ele>
        <time>2022-06-18T16:50:16Z</time>
      </trkpt>
      <trkpt lat="43.66351" lon="1.45167">
        <ele>134</ele>
        <time>2022-06-18T16:50:22Z</time>
      </trkpt>
      <trkpt lat="43.66327" lon="1.45191">
        <ele>133</ele>
        <time>2022-06-18T16:50:29Z</time>
      </trkpt>
      <trkpt lat="43.66313" lon="1.45213">
        <ele>133</ele>
        <time>2022-06-18T16:50:34Z</time>
      </trkpt>
      <trkpt lat="43.66316" lon="1.45248">
        <ele>133</ele>
        <time>2022-06-18T16:50:40Z</time>
      </trkpt>
      <trkpt lat="43.66283" lon="1.45301">
        <ele>132</ele>
        <time>2022-06-18T16:50:52Z</time>
      </trkpt>
      <trkpt lat="43.66276" lon="1.45347">
        <ele>131</ele>
        <time>2022-06-18T16:51:00Z</time>
      </trkpt>
      <trkpt lat="43.6628" lon="1.45387">
        <ele>131</ele>
        <time>2022-06-18T16:51:07Z</time>
      </trkpt>
      <trkpt lat="43.66259" lon="1.45466">
        <ele>131</ele>
        <time>2022-06-18T16:51:21Z</time>
      </trkpt>
      <trkpt lat="43.66212" lon="1.45624">
        <ele>130</ele>
        <time>2022-06-18T16:51:50Z</time>
      </trkpt>
      <trkpt lat="43.66208" lon="1.4563">
        <ele>131</ele>
        <time>2022-06-18T16:51:51Z</time>
      </trkpt>
      <trkpt lat="43.66198" lon="1.45634">
        <ele>131</ele>
        <time>2022-06-18T16:51:53Z</time>
      </trkpt>
      <trkpt lat="43.66188" lon="1.45628">
        <ele>131</ele>
        <time>2022-06-18T16:51:56Z</time>
      </trkpt>
      <trkpt lat="43.66158" lon="1.45588">
        <ele>132</ele>
        <time>2022-06-18T16:52:06Z</time>
      </trkpt>
      <trkpt lat="43.66116" lon="1.4555">
        <ele>134</ele>
        <time>2022-06-18T16:52:17Z</time>
      </trkpt>
      <trkpt lat="43.66093" lon="1.45535">
        <ele>135</ele>
        <time>2022-06-18T16:52:23Z</time>
      </trkpt>
      <trkpt lat="43.66072" lon="1.45536">
        <ele>136</ele>
        <time>2022-06-18T16:52:28Z</time>
      </trkpt>
      <trkpt lat="43.66056" lon="1.4553">
        <ele>136</ele>
        <time>2022-06-18T16:52:32Z</time>
      </trkpt>
      <trkpt lat="43.6601" lon="1.45493">
        <ele>137</ele>
        <time>2022-06-18T16:52:45Z</time>
      </trkpt>
      <trkpt lat="43.65981" lon="1.45477">
        <ele>137</ele>
        <time>2022-06-18T16:52:52Z</time>
      </trkpt>
      <trkpt lat="43.6597" lon="1.45462">
        <ele>137</ele>
        <time>2022-06-18T16:52:56Z</time>
      </trkpt>
      <trkpt lat="43.6596" lon="1.45457">
        <ele>137</ele>
        <time>2022-06-18T16:52:58Z</time>
      </trkpt>
      <trkpt lat="43.65949" lon="1.45455">
        <ele>137</ele>
        <time>2022-06-18T16:53:01Z</time>
      </trkpt>
      <trkpt lat="43.65924" lon="1.4547">
        <ele>136</ele>
        <time>2022-06-18T16:53:07Z</time>
      </trkpt>
      <trkpt lat="43.65859" lon="1.4548">
        <ele>136</ele>
        <time>2022-06-18T16:53:22Z</time>
      </trkpt>
      <trkpt lat="43.65803" lon="1.45496">
        <ele>137</ele>
        <time>2022-06-18T16:53:36Z</time>
      </trkpt>
      <trkpt lat="43.6577" lon="1.45485">
        <ele>137</ele>
        <time>2022-06-18T16:53:44Z</time>
      </trkpt>
      <trkpt lat="43.65732" lon="1.45478">
        <ele>136</ele>
        <time>2022-06-18T16:53:52Z</time>
      </trkpt>
      <trkpt lat="43.65589" lon="1.45419">
        <ele>134</ele>
        <time>2022-06-18T16:54:27Z</time>
      </trkpt>
      <trkpt lat="43.6546" lon="1.45377">
        <ele>135</ele>
        <time>2022-06-18T16:54:58Z</time>
      </trkpt>
      <trkpt lat="43.6544" lon="1.45367">
        <ele>136</ele>
        <time>2022-06-18T16:55:03Z</time>
      </trkpt>
      <trkpt lat="43.65438" lon="1.45349">
        <ele>136</ele>
        <time>2022-06-18T16:55:06Z</time>
      </trkpt>
      <trkpt lat="43.65463" lon="1.45306">
        <ele>136</ele>
        <time>2022-06-18T16:55:16Z</time>
      </trkpt>
      <trkpt lat="43.65573" lon="1.45189">
        <ele>136</ele>
        <time>2022-06-18T16:55:48Z</time>
      </trkpt>
      <trkpt lat="43.65599" lon="1.45157">
        <ele>135</ele>
        <time>2022-06-18T16:55:56Z</time>
      </trkpt>
      <trkpt lat="43.65605" lon="1.45139">
        <ele>135</ele>
        <time>2022-06-18T16:56:00Z</time>
      </trkpt>
      <trkpt lat="43.65596" lon="1.45111">
        <ele>135</ele>
        <time>2022-06-18T16:56:05Z</time>
      </trkpt>
      <trkpt lat="43.65489" lon="1.44959">
        <ele>137</ele>
        <time>2022-06-18T16:56:41Z</time>
      </trkpt>
      <trkpt lat="43.65478" lon="1.4493">
        <ele>137</ele>
        <time>2022-06-18T16:56:46Z</time>
      </trkpt>
      <trkpt lat="43.65481" lon="1.44914">
        <ele>137</ele>
        <time>2022-06-18T16:56:49Z</time>
      </trkpt>
      <trkpt lat="43.6552" lon="1.44822">
        <ele>136</ele>
        <time>2022-06-18T16:57:07Z</time>
      </trkpt>
      <trkpt lat="43.65544" lon="1.44785">
        <ele>136</ele>
        <time>2022-06-18T16:57:15Z</time>
      </trkpt>
      <trkpt lat="43.65606" lon="1.44662">
        <ele>136</ele>
        <time>2022-06-18T16:57:41Z</time>
      </trkpt>
      <trkpt lat="43.65601" lon="1.44642">
        <ele>136</ele>
        <time>2022-06-18T16:57:44Z</time>
      </trkpt>
    </trkseg>
  </trk>
</gpx>